• Join FlightAware (Why Join?)
  • Login
  • US Flag 
04:17PM EDT


 

Airport Tracker/Info


-or-


 

Live Flight TrackerFlight Track Log ✈ SIA21 ✈ 07-Nov-2013 ✈ KEWR - WSSS / SIN

Flight Track Log - Related Links

Times and Time Zones

All times are in EST time to prevent confusion due to time zone crossing. See the SIA21 flight status page for this flight to view local times or setup timezone preferences in your user account.

Time Position Orientation Groundspeed Altitude Reporting Facility
EST Latitude Longitude Course Direction KTS MPH feet Rate Location/Type
11:16PM 40.7377 -74.1216 360° North 187 215 1,900  Level FlightAware ADS-B
11:17PM 40.7413 -74.1182 36° Northeast 193 222 2,000 1,320 Climbing FlightAware ADS-B
11:17PM 40.7509 -74.1099 33° Northeast 203 234 2,300 1,500 Climbing FlightAware ADS-B
11:17PM 40.7631 -74.0989 34° Northeast 212 244 2,700 1,560 Climbing FlightAware ADS-B
11:17PM 40.7756 -74.0874 35° Northeast 222 255 3,100 1,200 Climbing FlightAware ADS-B
11:18PM 40.7979 -74.0675 34° Northeast 246 283 3,500 1,080 Climbing FlightAware ADS-B
11:18PM 40.8051 -74.0602 38° Northeast 255 293 3,700 1,800 Climbing FlightAware ADS-B
11:18PM 40.8097 -74.0547 42° Northeast 261 300 3,900 2,280 Climbing FlightAware ADS-B
11:18PM 40.8167 -74.0452 46° Northeast 268 308 4,200 2,040 Climbing FlightAware ADS-B
11:18PM 40.8288 -74.0258 50° Northeast 275 316 4,700 2,100 Climbing FlightAware ADS-B
11:19PM 40.8412 -74.0055 51° Northeast 281 323 5,300 2,220 Climbing FlightAware ADS-B
11:19PM 40.8544 -73.9834 52° Northeast 286 329 5,900 2,520 Climbing FlightAware ADS-B
11:19PM 40.8705 -73.9565 52° Northeast 286 329 6,800 2,520 Climbing FlightAware ADS-B
11:19PM 40.8832 -73.9356 51° Northeast 286 329 7,400 1,500 Climbing FlightAware ADS-B
11:20PM 40.8967 -73.9142 50° Northeast 302 348 7,600 1,260 Climbing FlightAware ADS-B
11:20PM 40.9118 -73.8908 50° Northeast 311 358 8,100 1,740 Climbing FlightAware ADS-B
11:20PM 40.9351 -73.8543 50° Northeast 322 371 8,800 1,920 Climbing FlightAware ADS-B
11:21PM 40.9668 -73.8055 49° Northeast 330 380 9,900 1,560 Climbing FlightAware ADS-B (KSNC)
11:22PM 41.0200 -73.7200 50° Northeast 364 419 11,000 1,200 Climbing FlightAware
11:22PM 41.0660 -73.6470 50° Northeast 392 451 11,800 1,440 Climbing FlightAware
11:23PM 41.1410 -73.5260 51° Northeast 419 482 13,500 1,740 Climbing FlightAware
11:24PM 41.1982 -73.4365 50° Northeast 430 495 15,000 1,800 Climbing FlightAware ADS-B (KSNC)
11:25PM 41.2346 -73.3766 51° Northeast 440 506 15,800 1,560 Climbing FlightAware ADS-B (KSNC)
11:25PM 41.2957 -73.2748 51° Northeast 458 527 17,000 1,320 Climbing FlightAware ADS-B (KSNC)
11:26PM 41.3368 -73.2089 50° Northeast 471 542 17,500 1,020 Climbing FlightAware ADS-B (KSNC)
11:27PM 41.3957 -73.1088 52° Northeast 483 556 18,300 1,200 Climbing FlightAware ADS-B (KSNC)
11:27PM 41.4403 -73.0054 60° Northeast 490 564 19,200 1,140 Climbing FlightAware ADS-B (KSNC)
11:28PM 41.4753 -72.9241 60° Northeast 499 574 19,700 720 Climbing FlightAware ADS-B (KSNC)
11:29PM 41.5203 -72.8204 60° Northeast 513 590 20,100 660 Climbing FlightAware ADS-B (KSNC)
11:29PM 41.5686 -72.7090 60° Northeast 526 605 20,600 840 Climbing FlightAware ADS-B (KSNC)
11:30PM 41.6060 -72.6238 60° Northeast 534 615 21,100 1,020 Climbing FlightAware ADS-B (KSNC)
11:30PM 41.6624 -72.4992 59° Northeast 538 619 21,900 1,080 Climbing FlightAware ADS-B (KSNC)
11:31PM 41.7088 -72.4204 52° Northeast 539 620 22,500 960 Climbing FlightAware ADS-B (KSNC)
11:32PM 41.7756 -72.3093 51° Northeast 550 633 23,100 780 Climbing FlightAware ADS-B (KSNC)
11:32PM 41.8258 -72.2271 51° Northeast 557 641 23,500 720 Climbing FlightAware ADS-B (KSNC)
11:33PM 41.8938 -72.1166 50° Northeast 565 650 24,000 780 Climbing FlightAware ADS-B (KSNC)
11:33PM 41.9436 -72.0356 50° Northeast 571 657 24,500 900 Climbing FlightAware ADS-B (KSNC)
11:34PM 42.0125 -71.9212 51° Northeast 575 662 25,100 900 Climbing FlightAware ADS-B (KSNC)
11:35PM 42.0737 -71.8183 51° Northeast 578 665 25,700 840 Climbing FlightAware ADS-B
11:35PM 42.0935 -71.7851 51° Northeast 576 663 25,800 660 Climbing FlightAware ADS-B
11:35PM 42.1493 -71.6918 51° Northeast 580 667 26,200 720 Climbing FlightAware ADS-B
11:36PM 42.2002 -71.6065 51° Northeast 588 677 26,600 840 Climbing FlightAware ADS-B
11:36PM 42.2519 -71.5208 51° Northeast 588 677 27,100 960 Climbing FlightAware ADS-B
11:37PM 42.3077 -71.4281 51° Northeast 589 678 27,700 1,320 Climbing FlightAware ADS-B (KBOS)
11:37PM 42.3217 -71.4046 51° Northeast 589 678 28,000 840 Climbing FlightAware ADS-B (KOWD)
11:38PM 42.3655 -71.3303 51° Northeast 592 681 28,300 840 Climbing FlightAware ADS-B (KBOS)
11:38PM 42.3407 -71.3724 231° Southwest 596 686 28,700 1,080 Climbing FlightAware ADS-B (KOWD)
11:39PM 42.5032 -71.0980 51° Northeast 593 682 29,600 1,140 Climbing FlightAware ADS-B (KBOS)
11:39PM 42.5520 -71.0154 51° Northeast 588 677 30,400 1,560 Climbing FlightAware ADS-B (KBOS)
11:40PM 42.5724 -70.9802 52° Northeast 579 666 30,700 2,100 Climbing FlightAware ADS-B
11:40PM 42.6214 -70.8946 52° Northeast 566 651 31,800 1,680 Climbing FlightAware ADS-B
11:40PM 42.6524 -70.8403 52° Northeast 566 651 32,100 780 Climbing FlightAware ADS-B
11:40PM 42.6679 -70.8132 52° Northeast 566 651 32,200 420 Climbing FlightAware ADS-B
11:41PM 42.7140 -70.7330 52° Northeast 578 665 32,400 360 Climbing FlightAware ADS-B (KBOS)
11:42PM 42.7672 -70.6416 52° Northeast 582 670 32,600 360 Climbing FlightAware ADS-B (KBOS)
11:42PM 42.7954 -70.5934 51° Northeast 579 666 32,700 480 Climbing FlightAware ADS-B
11:42PM 42.8082 -70.5716 51° Northeast 585 673 32,800 360 Climbing FlightAware ADS-B
11:43PM 42.8687 -70.4670 52° Northeast 592 681 33,000 180 Climbing FlightAware ADS-B (KBOS)
11:43PM 42.9075 -70.3990 52° Northeast 592 681 33,000  Level FlightAware ADS-B
11:43PM 42.9586 -70.3083 52° Northeast 598 688 33,000  Level FlightAware ADS-B
11:44PM 43.0212 -70.1994 52° Northeast 602 693 33,000  Level FlightAware ADS-B (KBOS)
11:45PM 43.0899 -70.0809 52° Northeast 602 693 33,000  Level FlightAware ADS-B (KBOS)
11:45PM 43.1408 -69.9914 52° Northeast 603 694 33,000  Level FlightAware ADS-B (KBOS)
11:46PM 43.1936 -69.8980 52° Northeast 603 694 33,000  Level FlightAware ADS-B (KBOS)
11:46PM 43.2347 -69.8249 52° Northeast 603 694 33,000  Level FlightAware ADS-B
11:47PM 43.2929 -69.7213 52° Northeast 604 695 33,000  Level FlightAware ADS-B (KBOS)
11:47PM 43.3429 -69.6319 52° Northeast 606 697 33,000  Level FlightAware ADS-B (KBOS)
11:48PM 43.4128 -69.5064 53° Northeast 604 695 33,000  Level FlightAware ADS-B (KBOS)
11:48PM 43.4680 -69.4070 53° Northeast 605 696 33,000  Level FlightAware ADS-B
11:49PM 43.5326 -69.2903 53° Northeast 603 694 33,000  Level FlightAware ADS-B (KBOS)
11:50PM 43.5823 -69.1999 53° Northeast 603 694 33,000  Level FlightAware ADS-B (KBOS)
11:50PM 43.6234 -69.1254 53° Northeast 603 694 33,000  Level FlightAware ADS-B (CYQI)
11:50PM 43.6466 -69.0831 53° Northeast 599 689 33,000  Level FlightAware ADS-B
11:51PM 43.7210 -68.9480 53° Northeast 602 693 33,000  Level FlightAware
11:51PM 43.7500 -68.8939 53° Northeast 603 694 33,000  Level FlightAware ADS-B (KBOS)
11:51PM 43.7621 -68.8718 53° Northeast 598 688 33,000  Level FlightAware ADS-B
11:52PM 43.8307 -68.7454 53° Northeast 604 695 33,000  Level FlightAware ADS-B (KBOS)
11:52PM 43.8511 -68.7077 53° Northeast 604 695 33,000  Level FlightAware ADS-B (CYQI)
11:53PM 43.8902 -68.6354 53° Northeast 600 690 33,000  Level FlightAware ADS-B
11:53PM 43.9497 -68.5251 53° Northeast 604 695 33,000  Level FlightAware ADS-B (KBOS)
11:54PM 44.0778 -68.2860 53° Northeast 604 695 33,000  Level FlightAware ADS-B (CYQI)
11:55PM 44.1288 -68.1902 53° Northeast 601 692 33,000  Level FlightAware ADS-B
11:56PM 44.2269 -68.0052 53° Northeast 600 690 33,000  Level FlightAware ADS-B (CYQI)
11:56PM 44.2762 -67.9117 54° Northeast 602 693 33,000  Level FlightAware ADS-B (CYQI)
11:57PM 44.3422 -67.7862 54° Northeast 601 692 33,000  Level FlightAware ADS-B (CYQI)
11:58PM 44.3943 -67.6868 54° Northeast 601 692 33,000  Level FlightAware ADS-B (CYQI)
11:59PM 44.4943 -67.4948 54° Northeast 604 695 33,000  Level FlightAware ADS-B (CYQI)
11:59PM 44.5696 -67.3493 54° Northeast 600 690 33,000  Level FlightAware ADS-B (CYQI)
12:00AM 44.6261 -67.2399 54° Northeast 600 690 33,000  Level FlightAware ADS-B (CYQI)
12:01AM 44.6819 -67.1311 54° Northeast 603 694 33,000  Level FlightAware ADS-B (CYQI)
12:01AM 44.7488 -67.0003 54° Northeast 604 695 33,000  Level FlightAware ADS-B (CYQI)
12:02AM 44.8630 -66.7750 54° Northeast 605 696 33,000  Level FlightAware
12:03AM 44.9517 -66.5999 54° Northeast 605 696 33,000  Level FlightAware ADS-B (CYQI)
12:04AM 45.0024 -66.4989 55° Northeast 606 697 33,000  Level FlightAware ADS-B (CYQI)
12:05AM 45.0832 -66.3375 55° Northeast 606 697 33,000  Level FlightAware ADS-B (CYQI)
12:05AM 45.1270 -66.2500 55° Northeast 601 692 33,000  Level FlightAware
12:06AM 45.1765 -66.1497 55° Northeast 607 699 33,000  Level FlightAware ADS-B (CYQI)
12:06AM 45.2304 -66.0406 55° Northeast 605 696 33,000  Level FlightAware ADS-B (CYQI)
12:07AM 45.2791 -65.9418 55° Northeast 606 697 33,000  Level FlightAware ADS-B (CYQI)
12:07AM 45.3407 -65.8163 55° Northeast 610 702 33,000  Level FlightAware ADS-B (CYQI)
12:08AM 45.4140 -65.6670 55° Northeast 605 696 33,000  Level FlightAware
12:09AM 45.4970 -65.4953 55° Northeast 610 702 33,000  Level FlightAware ADS-B (CYQI)
12:10AM 45.5870 -65.3100 55° Northeast 607 699 33,000  Level FlightAware
12:10AM 45.6239 -65.2317 56° Northeast 608 700 33,000  Level FlightAware ADS-B (CYQI)
12:11AM 45.6930 -65.0870 56° Northeast 609 701 33,000  Level FlightAware
12:11AM 45.7321 -65.0054 56° Northeast 609 701 33,000  Level FlightAware ADS-B (CYQI)
12:12AM 45.7930 -64.8770 56° Northeast 609 701 33,000  Level FlightAware
12:12AM 45.8188 -64.8226 56° Northeast 609 701 33,000  Level FlightAware ADS-B (CYQI)
12:13AM 45.8570 -64.7410 56° Northeast 607 699 33,000  Level FlightAware
12:14AM 45.9550 -64.5320 56° Northeast 608 700 33,000  Level FlightAware
12:14AM 46.0080 -64.4200 56° Northeast 610 702 33,000  Level FlightAware
12:15AM 46.0940 -64.2340 56° Northeast 612 704 33,000  Level FlightAware
12:16AM 46.1830 -64.0410 56° Northeast 610 702 33,000  Level FlightAware
12:17AM 46.2570 -63.8800 56° Northeast 607 699 33,000  Level FlightAware
12:18AM 46.3570 -63.6600 57° Northeast 606 697 33,000  Level FlightAware
12:19AM 46.4400 -63.4770 57° Northeast 606 697 33,000  Level FlightAware
12:20AM 46.5240 -63.2890 57° Northeast 607 699 33,000  Level FlightAware
12:21AM 46.6090 -63.0990 57° Northeast 606 697 33,000  Level FlightAware
12:22AM 46.6880 -62.9210 57° Northeast 607 699 33,000  Level FlightAware
12:23AM 46.7860 -62.6970 57° Northeast 606 697 33,000  Level FlightAware
12:23AM 46.8450 -62.5630 57° Northeast 606 697 33,000  Level FlightAware
12:24AM 46.8880 -62.4640 58° Northeast 605 696 33,000  Level FlightAware
12:25AM 46.9410 -62.3410 58° Northeast 606 697 33,000  Level FlightAware
12:25AM 46.9770 -62.2560 58° Northeast 605 696 33,000  Level FlightAware
12:26AM 47.0780 -62.0230 57° Northeast 605 696 33,000  Level FlightAware
12:27AM 47.1260 -61.9090 58° Northeast 606 697 33,000  Level FlightAware
12:28AM 47.2160 -61.6980 58° Northeast 607 699 33,000  Level FlightAware
12:28AM 47.2630 -61.5850 58° Northeast 607 699 33,000  Level FlightAware
12:29AM 47.3430 -61.3940 58° Northeast 606 697 33,000  Level FlightAware
12:30AM 47.4330 -61.1780 58° Northeast 607 699 33,000  Level FlightAware
12:31AM 47.4860 -61.0500 58° Northeast 608 700 33,000  Level FlightAware
12:31AM 47.5520 -60.8890 59° Northeast 607 699 33,000  Level FlightAware
12:32AM 47.6030 -60.7660 58° Northeast 609 701 33,000  Level FlightAware
12:33AM 47.6880 -60.5550 59° Northeast 607 699 33,000  Level FlightAware
12:34AM 47.7520 -60.3970 59° Northeast 605 696 33,000  Level FlightAware
12:35AM 47.8490 -60.1550 59° Northeast 608 700 33,000  Level FlightAware
12:35AM 47.8950 -60.0410 59° Northeast 608 700 33,000  Level FlightAware
12:36AM 47.9540 -59.8940 59° Northeast 608 700 33,000  Level FlightAware
12:37AM 48.0000 -59.7810 59° Northeast 608 700 33,000  Level FlightAware
12:38AM 48.0710 -59.5920 61° Northeast 607 699 33,000  Level FlightAware
12:38AM 48.1020 -59.5130 60° Northeast 607 699 33,000  Level FlightAware
12:39AM 48.1630 -59.3560 60° Northeast 610 702 33,000  Level FlightAware
12:40AM 48.2500 -59.1310 60° Northeast 610 702 33,000  Level FlightAware
12:40AM 48.2840 -59.0430 60° Northeast 608 700 33,000  Level FlightAware
12:40AM 48.3170 -58.9550 61° Northeast 607 699 33,000  Level FlightAware
12:41AM 48.3730 -58.8080 60° Northeast 607 699 33,000  Level FlightAware
12:42AM 48.4170 -58.6910 60° Northeast 609 701 33,000  Level FlightAware
12:42AM 48.4780 -58.5310 60° Northeast 608 700 33,000  Level FlightAware
12:43AM 48.5480 -58.3430 61° Northeast 608 700 33,000  Level FlightAware
12:44AM 48.6040 -58.1930 61° Northeast 607 699 33,000  Level FlightAware
12:45AM 48.6560 -58.0500 61° Northeast 606 697 33,000  Level FlightAware
12:45AM 48.7220 -57.8680 61° Northeast 606 697 33,000  Level FlightAware
12:46AM 48.7590 -57.7530 64° Northeast 606 697 33,000  Level FlightAware
12:46AM 48.8050 -57.6150 63° Northeast 604 695 33,000  Level FlightAware
12:48AM 48.8920 -57.3560 63° Northeast 603 694 33,000  Level FlightAware
12:49AM 48.9690 -57.1220 63° Northeast 603 694 33,000  Level FlightAware
12:50AM 49.0430 -56.8950 63° Northeast 602 693 33,000  Level FlightAware
12:50AM 49.0860 -56.7650 63° Northeast 602 693 33,000  Level FlightAware
12:51AM 49.1290 -56.6310 64° Northeast 603 694 33,000  Level FlightAware
12:51AM 49.1660 -56.5150 64° Northeast 602 693 33,000  Level FlightAware
12:52AM 49.2400 -56.2850 64° Northeast 601 692 33,000  Level FlightAware
12:53AM 49.2820 -56.1520 64° Northeast 601 692 33,000  Level FlightAware
12:54AM 49.3470 -55.9450 64° Northeast 602 693 33,000  Level FlightAware
12:55AM 49.4090 -55.7500 64° Northeast 599 689 33,000  Level FlightAware
12:55AM 49.4390 -55.6530 65° Northeast 598 688 33,000  Level FlightAware
12:56AM 49.4800 -55.5210 64° Northeast 600 690 33,000  Level FlightAware
12:56AM 49.5390 -55.3270 65° Northeast 601 692 33,000  Level FlightAware
12:58AM 49.6160 -55.0760 65° Northeast 603 694 33,000  Level FlightAware
12:58AM 49.6570 -54.9390 65° Northeast 604 695 33,000  Level FlightAware
12:59AM 49.6920 -54.8210 65° Northeast 604 695 33,000  Level FlightAware
01:00AM 49.7560 -54.6070 65° Northeast 603 694 33,000  Level FlightAware
01:01AM 49.8250 -54.3760 65° Northeast 601 692 33,000  Level FlightAware
01:02AM 49.8930 -54.1420 66° East 602 693 33,000  Level FlightAware
01:02AM 49.9340 -54.0010 66° East 600 690 33,000  Level FlightAware
01:03AM 49.9910 -53.8040 66° East 603 694 33,000  Level FlightAware
01:04AM 50.0310 -53.6660 66° East 601 692 33,000  Level FlightAware
01:04AM 50.0920 -53.4490 66° East 597 687 33,000  Level FlightAware
01:05AM 50.1420 -53.2750 66° East 595 685 33,000  Level FlightAware
01:06AM 50.1800 -53.1370 67° East 595 685 33,000  Level FlightAware
01:07AM 50.2450 -52.9040 66° East 596 686 33,000  Level FlightAware
01:07AM 50.2830 -52.7660 67° East 598 688 33,000  Level FlightAware
01:08AM 50.3370 -52.5680 67° East 594 684 33,000  Level FlightAware
01:09AM 50.4030 -52.3270 67° East 595 685 33,000  Level FlightAware
01:10AM 50.4520 -52.1430 67° East 594 684 33,000  Level FlightAware
01:11AM 50.4990 -51.9690 67° East 593 682 33,000  Level FlightAware
01:12AM 50.5470 -51.7890 67° East 595 685 33,000  Level FlightAware
01:12AM 50.5800 -51.6670 67° East 595 685 33,000  Level FlightAware
01:13AM 50.6130 -51.5450 67° East 595 685 33,000  Level FlightAware
01:14AM 50.6570 -51.3820 67° East 595 685 33,000  Level FlightAware
01:14AM 50.6890 -51.2600 67° East 595 685 33,000  Level FlightAware
01:15AM 50.7110 -51.1780 67° East 595 685 33,000  Level FlightAware
01:16AM 50.7660 -50.9740 67° East 595 685 33,000  Level FlightAware
01:16AM 50.7990 -50.8510 67° East 595 685 33,000  Level FlightAware
01:17AM 50.8320 -50.7280 67° East 595 685 33,000  Level FlightAware
01:18AM 50.8760 -50.5650 67° East 595 685 33,000  Level FlightAware
01:18AM 50.9090 -50.4420 67° East 595 685 33,000  Level FlightAware
01:19AM 50.9640 -50.2330 67° East 595 685 33,000  Level FlightAware
01:20AM 50.9980 -50.1070 67° East 595 685 33,000  Level FlightAware
01:21AM 51.0530 -49.9010 67° East 595 685 33,000  Level FlightAware
01:29AM 51.9155 -49.0350 32° Northeast  Level Estimated
01:30AM 52.0270 -48.9201 32° Northeast  Level Estimated
01:31AM 52.1384 -48.8047 32° Northeast  Level Estimated
01:32AM 52.2497 -48.6886 33° Northeast  Level Estimated
01:33AM 52.3609 -48.5720 33° Northeast  Level Estimated
01:34AM 52.4720 -48.4548 33° Northeast  Level Estimated
01:35AM 52.5830 -48.3369 33° Northeast  Level Estimated
01:36AM 52.6938 -48.2185 33° Northeast  Level Estimated
01:37AM 52.8045 -48.0995 33° Northeast  Level Estimated
01:38AM 52.9151 -47.9799 33° Northeast  Level Estimated
01:39AM 53.0256 -47.8596 33° Northeast  Level Estimated
01:40AM 53.1360 -47.7388 33° Northeast  Level Estimated
01:41AM 53.2462 -47.6173 33° Northeast  Level Estimated
01:42AM 53.3563 -47.4952 33° Northeast  Level Estimated
01:43AM 53.4663 -47.3725 34° Northeast  Level Estimated
01:44AM 53.5762 -47.2491 34° Northeast  Level Estimated
01:45AM 53.6860 -47.1251 34° Northeast  Level Estimated
01:46AM 53.7956 -47.0004 34° Northeast  Level Estimated
01:47AM 53.9050 -46.8751 34° Northeast  Level Estimated
01:48AM 54.0144 -46.7491 34° Northeast  Level Estimated
01:49AM 54.1236 -46.6225 34° Northeast  Level Estimated
01:50AM 54.2327 -46.4952 34° Northeast  Level Estimated
01:51AM 54.3416 -46.3672 34° Northeast  Level Estimated
01:52AM 54.4505 -46.2386 34° Northeast  Level Estimated
01:53AM 54.5591 -46.1092 35° Northeast  Level Estimated
01:54AM 54.6676 -45.9792 35° Northeast  Level Estimated
01:55AM 54.7760 -45.8484 35° Northeast  Level Estimated
01:56AM 54.8843 -45.7170 35° Northeast  Level Estimated
01:57AM 54.9924 -45.5849 35° Northeast  Level Estimated
01:58AM 55.1004 -45.4520 35° Northeast  Level Estimated
01:59AM 55.2082 -45.3185 35° Northeast  Level Estimated
02:00AM 55.3159 -45.1842 35° Northeast  Level Estimated
02:01AM 55.4234 -45.0491 35° Northeast  Level Estimated
02:02AM 55.5308 -44.9133 36° Northeast  Level Estimated
02:03AM 55.6380 -44.7768 36° Northeast  Level Estimated
02:04AM 55.7451 -44.6396 36° Northeast  Level Estimated
02:05AM 55.8520 -44.5016 36° Northeast  Level Estimated
02:06AM 55.9588 -44.3628 36° Northeast  Level Estimated
02:07AM 56.0654 -44.2233 36° Northeast  Level Estimated
02:08AM 56.1718 -44.0830 36° Northeast  Level Estimated
02:09AM 56.2781 -43.9419 36° Northeast  Level Estimated
02:10AM 56.3842 -43.8000 36° Northeast  Level Estimated
02:11AM 56.4902 -43.6573 37° Northeast  Level Estimated
02:12AM 56.5960 -43.5138 37° Northeast  Level Estimated
02:13AM 56.7016 -43.3696 37° Northeast  Level Estimated
02:14AM 56.8071 -43.2245 37° Northeast  Level Estimated
02:15AM 56.9124 -43.0786 37° Northeast  Level Estimated
02:16AM 57.0175 -42.9318 37° Northeast  Level Estimated
02:17AM 57.1225 -42.7843 37° Northeast  Level Estimated
02:18AM 57.2273 -42.6359 37° Northeast  Level Estimated
02:19AM 57.3319 -42.4866 38° Northeast  Level Estimated
02:20AM 57.4363 -42.3365 38° Northeast  Level Estimated
02:21AM 57.5406 -42.1856 38° Northeast  Level Estimated
02:22AM 57.6446 -42.0338 38° Northeast  Level Estimated
02:23AM 57.7485 -41.8811 38° Northeast  Level Estimated
02:24AM 57.8522 -41.7275 38° Northeast  Level Estimated
02:25AM 57.9557 -41.5730 38° Northeast  Level Estimated
02:26AM 58.0590 -41.4177 38° Northeast  Level Estimated
02:27AM 58.1622 -41.2614 39° Northeast  Level Estimated
02:28AM 58.2651 -41.1043 39° Northeast  Level Estimated
02:29AM 58.3679 -40.9462 39° Northeast  Level Estimated
02:30AM 58.4704 -40.7872 39° Northeast  Level Estimated
02:31AM 58.5728 -40.6273 39° Northeast  Level Estimated
02:32AM 58.6749 -40.4664 39° Northeast  Level Estimated
02:33AM 58.7769 -40.3046 39° Northeast  Level Estimated
02:34AM 58.8786 -40.1418 40° Northeast  Level Estimated
02:35AM 58.9801 -39.9781 40° Northeast  Level Estimated
02:36AM 59.0815 -39.8134 40° Northeast  Level Estimated
02:37AM 59.1826 -39.6478 40° Northeast  Level Estimated
02:38AM 59.2835 -39.4811 40° Northeast  Level Estimated
02:38AM 54.0000 -30.0000 95° East 529 609 33,000  Level ETMS Enhanced Traffic Management System
02:39AM 59.3842 -39.3135 40° Northeast  Level Estimated
02:40AM 59.4847 -39.1449 40° Northeast  Level Estimated
02:41AM 59.5850 -38.9752 41° Northeast  Level Estimated
02:42AM 59.6850 -38.8046 41° Northeast  Level Estimated
02:43AM 59.7848 -38.6329 41° Northeast  Level Estimated
02:44AM 53.8710 -28.0145 97° East 529 609 33,000  Level FlightAware Transoceanic
02:45AM 53.8526 -27.7673 97° East 529 609 33,000  Level FlightAware Transoceanic
02:46AM 53.8336 -27.5202 98° East 529 609 33,000  Level FlightAware Transoceanic
02:47AM 53.8142 -27.2734 98° East 529 609 33,000  Level FlightAware Transoceanic
02:48AM 53.7942 -27.0268 98° East 529 609 33,000  Level FlightAware Transoceanic
02:49AM 53.7738 -26.7805 98° East 529 609 33,000  Level FlightAware Transoceanic
02:50AM 53.7528 -26.5343 98° East 529 609 33,000  Level FlightAware Transoceanic
02:51AM 53.7314 -26.2885 98° East 529 609 33,000  Level FlightAware Transoceanic
02:52AM 53.7094 -26.0429 99° East 529 609 33,000  Level FlightAware Transoceanic
02:53AM 53.6869 -25.7975 99° East 529 609 33,000  Level FlightAware Transoceanic
02:54AM 53.6640 -25.5524 99° East 529 609 33,000  Level FlightAware Transoceanic
02:55AM 53.6405 -25.3076 99° East 529 609 33,000  Level FlightAware Transoceanic
02:56AM 53.6165 -25.0630 99° East 529 609 33,000  Level FlightAware Transoceanic
02:57AM 53.5921 -24.8188 100° East 529 609 33,000  Level FlightAware Transoceanic
02:58AM 53.5671 -24.5748 100° East 529 609 33,000  Level FlightAware Transoceanic
02:59AM 53.5417 -24.3311 100° East 529 609 33,000  Level FlightAware Transoceanic
03:00AM 53.5157 -24.0877 100° East 529 609 33,000  Level FlightAware Transoceanic
03:01AM 53.4893 -23.8446 100° East 529 609 33,000  Level FlightAware Transoceanic
03:02AM 53.4623 -23.6019 101° East 529 609 33,000  Level FlightAware Transoceanic
03:03AM 53.4349 -23.3594 101° East 529 609 33,000  Level FlightAware Transoceanic
03:04AM 53.4070 -23.1172 101° East 529 609 33,000  Level FlightAware Transoceanic
03:05AM 53.3786 -22.8754 101° East 529 609 33,000  Level FlightAware Transoceanic
03:06AM 53.3497 -22.6339 101° East 529 609 33,000  Level FlightAware Transoceanic
03:07AM 53.3203 -22.3927 102° East 529 609 33,000  Level FlightAware Transoceanic
03:08AM 53.2905 -22.1518 102° East 529 609 33,000  Level FlightAware Transoceanic
03:09AM 53.2601 -21.9113 102° East 529 609 33,000  Level FlightAware Transoceanic
03:10AM 53.2293 -21.6712 102° East 529 609 33,000  Level FlightAware Transoceanic
03:11AM 53.1979 -21.4313 102° East 529 609 33,000  Level FlightAware Transoceanic
03:12AM 53.1661 -21.1919 103° East 529 609 33,000  Level FlightAware Transoceanic
03:13AM 53.1339 -20.9528 103° East 529 609 33,000  Level FlightAware Transoceanic
03:14AM 53.1011 -20.7140 103° East 529 609 33,000  Level FlightAware Transoceanic
03:15AM 53.0679 -20.4756 103° East 529 609 33,000  Level FlightAware Transoceanic
03:16AM 53.0342 -20.2376 103° East 529 609 33,000 120 Level FlightAware Transoceanic
03:17AM 53.0986 -20.0457 61° Northeast  Level Estimated
03:18AM 53.1628 -19.8533 61° Northeast  Level Estimated
03:19AM 53.2266 -19.6602 61° Northeast  Level Estimated
03:20AM 53.2901 -19.4666 61° Northeast  Level Estimated
03:21AM 53.3533 -19.2724 61° Northeast  Level Estimated
03:22AM 53.4162 -19.0776 61° Northeast  Level Estimated
03:23AM 53.4788 -18.8823 62° Northeast  Level Estimated
03:24AM 53.5410 -18.6864 62° Northeast  Level Estimated
03:25AM 53.6030 -18.4899 62° Northeast  Level Estimated
03:26AM 53.6646 -18.2928 62° Northeast  Level Estimated
03:27AM 53.7259 -18.0951 62° Northeast  Level Estimated
03:28AM 53.7868 -17.8969 62° Northeast  Level Estimated
03:29AM 53.8475 -17.6981 63° Northeast  Level Estimated
03:30AM 53.9077 -17.4988 63° Northeast  Level Estimated
03:31AM 53.9677 -17.2988 63° Northeast  Level Estimated
03:32AM 54.0274 -17.0983 63° Northeast  Level Estimated
03:33AM 54.0867 -16.8972 63° Northeast  Level Estimated
03:34AM 54.1456 -16.6955 63° Northeast  Level Estimated
03:35AM 54.2043 -16.4933 64° Northeast  Level Estimated
03:36AM 54.2625 -16.2904 64° Northeast  Level Estimated
03:37AM 54.3205 -16.0870 64° Northeast  Level Estimated
03:38AM 54.3781 -15.8831 64° Northeast  Level Estimated
03:39AM 54.4353 -15.6785 64° Northeast  Level Estimated
03:40AM 54.4923 -15.4734 64° Northeast  Level Estimated
03:41AM 54.5488 -15.2678 65° Northeast  Level Estimated
03:41AM 53.0510 -13.8130 65° Northeast 504 580 36,800  Level FlightAware
03:42AM 54.6050 -15.0615 65° Northeast  Level Estimated
03:42AM 53.0590 -13.7200 82° East 505 581 37,000  Level FlightAware
03:42AM 53.0720 -13.5890 81° East 505 581 37,000  Level FlightAware
03:43AM 53.0830 -13.4720 81° East 505 581 37,000  Level FlightAware
03:44AM 53.0940 -13.3540 81° East 505 581 37,000  Level FlightAware
03:45AM 53.1200 -12.9980 83° East 511 588 37,000  Level FlightAware
03:45AM 53.1300 -12.8730 82° East 511 588 37,000  Level FlightAware
03:46AM 53.1400 -12.7450 83° East 512 589 37,000  Level FlightAware
03:46AM 53.1500 -12.6160 83° East 514 592 37,000  Level FlightAware
03:47AM 53.1620 -12.4520 83° East 512 589 37,000  Level FlightAware
03:48AM 53.1740 -12.2880 83° East 512 589 37,000  Level FlightAware
03:48AM 53.1840 -12.1510 83° East 510 587 37,000  Level FlightAware
03:49AM 53.1930 -12.0270 83° East 512 589 37,000  Level FlightAware
03:50AM 53.2070 -11.8420 83° East 512 589 37,000  Level FlightAware
03:50AM 53.2150 -11.7220 84° East 512 589 37,000  Level FlightAware
03:51AM 53.2240 -11.5840 84° East 513 590 37,000  Level FlightAware
03:51AM 53.2350 -11.4280 83° East 513 590 37,000  Level FlightAware
03:52AM 53.2440 -11.2910 84° East 510 587 37,000  Level FlightAware
03:53AM 53.2600 -11.0330 84° East 511 588 37,000  Level FlightAware
03:54AM 53.2690 -10.9030 83° East 510 587 37,000  Level FlightAware
03:54AM 53.2800 -10.7220 84° East 508 585 37,000  Level FlightAware
03:55AM 53.2880 -10.5910 84° East 508 585 37,000  Level FlightAware
03:55AM 53.2930 -10.4910 85° East 509 586 37,000  Level FlightAware
03:56AM 53.3010 -10.3530 84° East 510 587 37,000  Level FlightAware
03:57AM 53.3090 -10.2160 84° East 510 587 37,000  Level FlightAware
03:57AM 53.3150 -10.1130 84° East 510 587 37,000  Level FlightAware
03:57AM 53.3210 -9.9970 85° East 512 589 37,000  Level FlightAware
03:58AM 53.3330 -9.7810 85° East 509 586 37,000  Level FlightAware
03:59AM 53.3400 -9.6410 85° East 509 586 37,000  Level FlightAware
03:59AM 53.3460 -9.5280 85° East 509 586 37,000  Level FlightAware
04:00AM 53.3540 -9.3720 85° East 511 588 37,000  Level FlightAware
04:01AM 53.3600 -9.2460 85° East 511 588 37,000  Level FlightAware
04:01AM 53.3580 -9.2818 265° West 508 585 37,000  Level FlightAware ADS-B
04:01AM 53.3672 -9.0892 85° East 505 581 37,000  Level FlightAware ADS-B
04:02AM 53.3743 -8.9331 86° East 506 582 37,000  Level FlightAware ADS-B
04:03AM 53.3799 -8.8095 86° East 510 587 37,000  Level FlightAware ADS-B
04:03AM 53.3844 -8.7064 86° East 511 588 37,000  Level FlightAware ADS-B
04:04AM 53.3931 -8.5125 86° East 482 555 37,000  Level FlightAware UK
04:04AM 53.3882 -8.6165 86° East 512 589 37,000  Level FlightAware ADS-B
04:05AM 53.4010 -8.3000 86° East 512 589 37,000  Level FlightAware
04:05AM 53.4026 -8.2740 86° East 478 550 37,000  Level FlightAware UK
04:05AM 53.4071 -8.1560 86° East 476 548 37,000  Level FlightAware UK
04:06AM 53.4096 -8.0890 86° East 512 589 37,000  Level FlightAware ADS-B
04:06AM 53.4138 -7.9775 86° East 513 590 37,000  Level FlightAware ADS-B
04:07AM 53.4193 -7.8240 86° East 513 590 37,000  Level FlightAware ADS-B
04:07AM 53.4243 -7.6823 86° East 478 550 37,000  Level FlightAware UK
04:07AM 53.4220 -7.7497 86° East 512 589 37,000  Level FlightAware ADS-B
04:08AM 53.4277 -7.5840 87° East 512 589 37,000  Level FlightAware ADS-B
04:09AM 53.4338 -7.3990 87° East 509 586 37,000  Level FlightAware ADS-B
04:09AM 53.4378 -7.2738 87° East 511 588 37,000  Level FlightAware ADS-B
04:10AM 53.4416 -7.1491 87° East 511 588 37,000  Level FlightAware ADS-B (EIDW / DUB)
04:10AM 53.4436 -7.0830 87° East 511 588 37,000  Level FlightAware ADS-B
04:11AM 53.4510 -6.8297 87° East 480 552 37,000  Level FlightAware UK
04:11AM 53.4504 -6.8464 87° East 513 590 37,000  Level FlightAware ADS-B
04:12AM 53.4572 -6.5891 87° East 515 593 37,000  Level FlightAware ADS-B
04:12AM 53.4604 -6.4624 88° East 517 595 37,000  Level FlightAware ADS-B
04:13AM 53.4634 -6.3385 88° East 517 595 37,000  Level FlightAware ADS-B
04:14AM 53.4669 -6.1843 88° East 516 594 37,000  Level FlightAware ADS-B
04:14AM 53.4696 -6.0584 88° East 515 593 37,000  Level FlightAware ADS-B
04:15AM 53.4721 -5.9347 88° East 516 594 37,000  Level FlightAware ADS-B
04:15AM 53.4741 -5.8325 88° East 516 594 37,000  Level FlightAware ADS-B (EIDW / DUB)
04:16AM 53.4769 -5.6819 88° East 514 592 37,000  Level FlightAware ADS-B
04:16AM 53.4791 -5.5514 88° East 515 593 37,000  Level FlightAware ADS-B
04:16AM 53.4793 -5.5403 88° East 515 593 37,000  Level FlightAware ADS-B
04:17AM 53.4780 -5.4226 91° East 513 590 37,000  Level FlightAware ADS-B
04:17AM 53.4745 -5.3044 93° East 515 593 37,000  Level FlightAware ADS-B
04:18AM 53.4712 -5.1929 93° East 517 595 37,000  Level FlightAware ADS-B
04:18AM 53.4674 -5.0690 93° East 518 596 37,000  Level FlightAware ADS-B
04:19AM 53.4655 -5.0082 93° East 519 597 37,000  Level FlightAware ADS-B (EGBS)
04:19AM 53.4590 -4.8064 93° East 518 596 37,000  Level FlightAware ADS-B (EGGP / LPL)
04:20AM 53.4531 -4.6272 93° East 480 552 37,000  Level FlightAware UK
04:20AM 53.4560 -4.7172 93° East 515 593 37,000  Level FlightAware ADS-B
04:20AM 53.4545 -4.6710 93° East 514 592 37,000  Level FlightAware ADS-B (EGXW / WTN)
04:21AM 53.4499 -4.5402 93° East 512 589 37,000  Level FlightAware ADS-B
04:22AM 53.4382 -4.2231 93° East 480 552 37,000  Level FlightAware UK
04:22AM 53.4367 -4.1826 93° East 513 590 37,000  Level FlightAware ADS-B
04:23AM 53.4316 -4.0529 94° East 512 589 37,000  Level FlightAware ADS-B
04:23AM 53.4281 -3.9645 94° East 513 590 37,000  Level FlightAware ADS-B
04:23AM 53.4226 -3.8294 94° East 512 589 37,000  Level FlightAware ADS-B (EGBS)
04:24AM 53.4215 -3.8050 94° East 512 589 37,000  Level FlightAware ADS-B (EGXW / WTN)
04:24AM 53.4209 -3.7891 94° East 512 589 37,000  Level FlightAware ADS-B
04:24AM 53.4154 -3.6605 94° East 512 589 37,000  Level FlightAware ADS-B (EGBS)
04:25AM 53.4108 -3.5538 94° East 513 590 37,000  Level FlightAware ADS-B (EGGP / LPL)
04:25AM 53.4074 -3.4755 94° East 514 592 37,000  Level FlightAware ADS-B (EGBS)
04:25AM 53.4023 -3.3617 94° East 512 589 37,000  Level FlightAware ADS-B (EGXW / WTN)
04:26AM 53.3954 -3.2121 94° East 512 589 37,000  Level FlightAware ADS-B (EGBS)
04:26AM 53.3933 -3.1673 94° East 511 588 37,000  Level FlightAware ADS-B (EGBS)
04:27AM 53.3880 -3.0471 94° East 511 588 37,000  Level FlightAware ADS-B (EGGP / LPL)
04:27AM 53.3836 -2.9250 93° East 512 589 37,000  Level FlightAware ADS-B (LRCV / CRA)
04:28AM 53.3791 -2.8002 93° East 508 585 37,000  Level FlightAware ADS-B (EGNT / NCL)
04:28AM 53.3743 -2.6792 94° East 506 582 37,000  Level FlightAware ADS-B (LRCV / CRA)
04:29AM 53.3688 -2.5456 94° East 509 586 37,000  Level FlightAware ADS-B (EGXW / WTN)
04:29AM 53.3631 -2.4073 94° East 511 588 37,000  Level FlightAware ADS-B (EGNT / NCL)
04:30AM 53.3579 -2.2900 94° East 511 588 37,000  Level FlightAware ADS-B (EGCD)
04:30AM 53.3523 -2.2160 97° East 507 583 37,000  Level FlightAware ADS-B
04:31AM 53.3391 -2.0894 100° East 504 580 37,000  Level FlightAware ADS-B (EGCD)
04:31AM 53.3274 -1.9751 100° East 505 581 37,000  Level FlightAware ADS-B
04:31AM 53.3250 -1.9521 100° East 506 582 37,000  Level FlightAware ADS-B (EGXW / WTN)
04:32AM 53.3178 -1.8829 100° East 507 583 37,000  Level FlightAware ADS-B
04:32AM 53.3060 -1.7706 100° East 507 583 37,000  Level FlightAware ADS-B (EGBS)
04:32AM 53.3017 -1.7291 100° East 507 583 37,000  Level FlightAware ADS-B
04:33AM 53.2976 -1.6906 100° East 508 585 37,000  Level FlightAware ADS-B (EGXW / WTN)
04:33AM 53.2907 -1.6259 100° East 507 583 37,000  Level FlightAware ADS-B (EGCD)
04:33AM 53.2885 -1.6059 100° East 508 585 37,000  Level FlightAware ADS-B
04:33AM 53.2862 -1.5843 100° East 509 586 37,000  Level FlightAware ADS-B (EGXW / WTN)
04:33AM 53.2827 -1.5511 100° East 509 586 37,000  Level FlightAware ADS-B
04:33AM 53.2816 -1.5412 100° East 508 585 37,000  Level FlightAware ADS-B (EGDM)
04:33AM 53.2785 -1.5126 100° East 510 587 37,000  Level FlightAware ADS-B (EGXW / WTN)
04:33AM 53.2759 -1.4886 100° East 511 588 37,000  Level FlightAware ADS-B
04:34AM 53.2701 -1.4349 100° East 514 592 37,000  Level FlightAware ADS-B (EGXW / WTN)
04:34AM 53.2558 -1.3041 100° East 520 598 37,000  Level FlightAware ADS-B
04:34AM 53.2555 -1.3017 102° East 520 598 37,000  Level FlightAware ADS-B (EGXW / WTN)
04:34AM 53.2528 -1.2766 100° East 519 597 37,000  Level FlightAware ADS-B (EGDM)
04:35AM 53.2418 -1.1780 100° East 521 600 37,000  Level FlightAware ADS-B
04:35AM 53.2356 -1.1220 100° East 521 600 37,000  Level FlightAware ADS-B (EGBS)
04:36AM 53.2220 -1.0004 101° East 518 596 37,000  Level FlightAware ADS-B (EGCD)
04:36AM 53.2103 -0.8969 101° East 520 598 37,000  Level FlightAware ADS-B
04:36AM 53.2093 -0.8875 101° East 514 592 37,000  Level FlightAware ADS-B (EGCD)
04:36AM 53.1964 -0.7750 101° East 514 592 37,000  Level FlightAware ADS-B
04:37AM 53.1966 -0.7774 279° West 513 590 37,000  Level FlightAware ADS-B (EGCD)
04:37AM 53.1828 -0.6567 101° East 511 588 37,000  Level FlightAware ADS-B (EGCD)
04:37AM 53.1808 -0.6397 101° East 511 588 37,000  Level FlightAware ADS-B
04:38AM 53.1682 -0.5317 101° East 512 589 37,000  Level FlightAware ADS-B (EGCD)
04:38AM 53.1668 -0.5193 101° East 512 589 37,000  Level FlightAware ADS-B
04:38AM 53.1541 -0.4120 101° East 513 590 37,000  Level FlightAware ADS-B (EGCD)
04:38AM 53.1506 -0.3819 101° East 513 590 37,000  Level FlightAware ADS-B
04:39AM 53.1396 -0.2893 101° East 512 589 37,000  Level FlightAware ADS-B (EGCD)
04:39AM 53.1356 -0.2554 101° East 512 589 37,000  Level FlightAware ADS-B
04:39AM 53.1252 -0.1689 101° East 515 593 37,000  Level FlightAware ADS-B (EGXW / WTN)
04:39AM 53.1215 -0.1379 101° East 515 593 37,000  Level FlightAware ADS-B
04:40AM 53.1124 -0.0628 101° East 515 593 37,000  Level FlightAware ADS-B
04:40AM 53.1069 -0.0171 101° East 515 593 37,000  Level FlightAware ADS-B
04:40AM 53.0974 0.0634 101° East 516 594 37,000  Level FlightAware ADS-B (EGXW / WTN)
04:40AM 53.0970 0.0673 100° East 516 594 37,000  Level FlightAware ADS-B
04:41AM 53.0911 0.1825 95° East 524 603 37,000  Level FlightAware ADS-B (EGXW / WTN)
04:41AM 53.0908 0.1962 92° East 525 604 37,000  Level FlightAware ADS-B
04:41AM 53.0897 0.2388 92° East 525 604 37,000  Level FlightAware ADS-B (EGHH / BOH)
04:41AM 53.0875 0.3210 93° East 528 608 37,000  Level FlightAware ADS-B
04:41AM 53.0864 0.3654 92° East 527 606 37,000  Level FlightAware ADS-B
04:42AM 53.0835 0.4755 92° East 528 608 37,000  Level FlightAware ADS-B
04:42AM 53.0827 0.5021 93° East 528 608 37,000  Level FlightAware ADS-B
04:42AM 53.0794 0.6239 93° East 528 608 37,000  Level FlightAware ADS-B
04:42AM 53.0789 0.6418 93° East 528 608 37,000  Level FlightAware ADS-B (EGXW / WTN)
04:43AM 53.0756 0.7514 93° East 527 606 37,000  Level FlightAware ADS-B (EGXW / WTN)
04:43AM 53.0749 0.7748 93° East 527 606 37,000  Level FlightAware ADS-B
04:43AM 53.0717 0.8795 93° East 526 605 37,000  Level FlightAware ADS-B (EGXW / WTN)
04:44AM 53.0709 0.9028 93° East 526 605 37,000  Level FlightAware ADS-B
04:44AM 53.0680 1.0017 93° East 524 603 37,000  Level FlightAware ADS-B
04:44AM 53.0673 1.0257 93° East 524 603 37,000  Level FlightAware ADS-B
04:45AM 53.0640 1.1321 93° East 523 602 37,000  Level FlightAware ADS-B (EGXW / WTN)
04:45AM 53.0633 1.1529 93° East 523 602 37,000  Level FlightAware ADS-B
04:45AM 53.0601 1.2528 93° East 523 602 37,000  Level FlightAware ADS-B (EPRZ / RZE)
04:45AM 53.0595 1.2737 93° East 523 602 37,000  Level FlightAware ADS-B
04:46AM 53.0562 1.3862 93° East 522 601 37,000  Level FlightAware ADS-B (EGXW / WTN)
04:46AM 53.0559 1.3950 93° East 522 601 37,000  Level FlightAware ADS-B
04:46AM 53.0529 1.5018 93° East 522 601 37,000  Level FlightAware ADS-B (EGXW / WTN)
04:46AM 53.0525 1.5186 92° East 522 601 37,000  Level FlightAware ADS-B
04:47AM 53.0483 1.6844 92° East 521 600 37,000  Level FlightAware ADS-B
04:47AM 53.0473 1.7233 92° East 520 598 37,000  Level FlightAware ADS-B (EPRZ / RZE)
04:47AM 53.0453 1.8068 92° East 519 597 37,000  Level FlightAware ADS-B
04:48AM 53.0434 1.8799 92° East 520 598 37,000  Level FlightAware ADS-B (EGLC / LCY)
04:48AM 53.0405 1.9912 92° East 519 597 37,000  Level FlightAware ADS-B
04:48AM 53.0329 2.0680 99° East 509 586 37,000  Level FlightAware ADS-B
04:49AM 53.0264 2.1059 106° East 506 582 37,000  Level FlightAware ADS-B
04:49AM 53.0057 2.2248 106° East 510 587 37,000  Level FlightAware ADS-B (EGNT / NCL)
04:50AM 52.9845 2.3498 106° East 512 589 37,000  Level FlightAware ADS-B (EGLC / LCY)
04:50AM 52.9765 2.3966 106° East 513 590 37,000  Level FlightAware ADS-B
04:51AM 52.9361 2.6326 106° East 478 550 37,000  Level FlightAware UK
04:51AM 52.9357 2.6341 106° East 514 592 37,000  Level FlightAware ADS-B (EGXW / WTN)
04:52AM 52.9140 2.7610 106° East 513 590 37,000  Level FlightAware
04:52AM 52.8884 2.9039 106° East 474 545 37,000  Level FlightAware UK
04:52AM 52.8880 2.9040 106° East 512 589 37,000  Level FlightAware
04:53AM 52.8650 3.0370 106° East 514 592 37,000  Level FlightAware
04:54AM 52.8284 3.2431 106° East 478 550 37,000  Level FlightAware UK
04:54AM 52.8501 3.1203 106° East 516 594 37,000  Level FlightAware ADS-B (EPRZ / RZE)
04:54AM 52.7997 3.4009 106° East 474 545 37,000  Level FlightAware UK
04:55AM 52.7928 3.4388 106° East 514 592 37,000  Level FlightAware ADS-B (EPRZ / RZE)
04:55AM 52.7630 3.6040 106° East 514 592 37,000  Level FlightAware
04:55AM 52.7546 3.6487 106° East 472 543 37,000  Level FlightAware UK
04:56AM 52.7390 3.7340 106° East 517 595 37,000  Level FlightAware
04:56AM 52.7339 3.7612 106° East 476 548 37,000  Level FlightAware UK
04:56AM 52.7130 3.8730 107° East 517 595 37,000  Level FlightAware
04:57AM 52.6850 4.0210 107° East 518 596 37,000  Level FlightAware
04:58AM 52.6570 4.1730 107° East 518 596 37,000  Level FlightAware
04:58AM 52.6538 4.1905 107° East 472 543 37,000  Level FlightAware UK
04:59AM 52.6260 4.3330 108° East 518 596 37,000  Level FlightAware
04:59AM 52.6010 4.4670 107° East 519 597 37,000  Level FlightAware
05:00AM 52.5740 4.6050 107° East 519 597 37,000  Level FlightAware
05:00AM 52.5588 4.6872 107° East 474 545 37,000  Level FlightAware UK
05:00AM 52.5460 4.7530 107° East 519 597 37,000  Level FlightAware
05:01AM 52.5220 4.8750 107° East 519 597 37,000  Level FlightAware
05:01AM 52.5152 4.9122 107° East 474 545 37,000  Level FlightAware UK
05:02AM 52.4878 5.0464 107° East 474 545 37,000  Level FlightAware UK
05:02AM 52.4880 5.0460 107° East 519 597 37,000  Level FlightAware
05:02AM 52.4530 5.2230 108° East 521 600 37,000  Level FlightAware
05:03AM 52.4224 5.3588 108° East 476 548 37,000  Level FlightAware UK
05:03AM 52.4220 5.3790 108° East 525 604 37,000  Level FlightAware
05:04AM 52.3930 5.5230 108° East 525 604 37,000  Level FlightAware
05:04AM 52.3620 5.6710 108° East 523 602 37,000  Level FlightAware
05:05AM 52.3561 5.6991 108° East 478 550 37,000  Level FlightAware UK
05:05AM 52.3370 5.7950 108° East 520 598 37,000  Level FlightAware
05:05AM 52.3348 5.8132 108° East 474 545 37,000  Level FlightAware UK
05:06AM 52.3110 5.9230 108° East 519 597 37,000  Level FlightAware
05:06AM 52.2910 6.0180 109° East 520 598 37,000  Level FlightAware
05:07AM 52.2480 6.2230 109° East 528 608 37,000  Level FlightAware
05:08AM 52.2160 6.3750 109° East 535 616 37,000  Level FlightAware
05:08AM 52.1890 6.5020 109° East 537 618 37,000  Level FlightAware
05:09AM 52.1600 6.6770 105° East 549 632 37,000  Level FlightAware
05:10AM 52.1480 6.8250 97° East 555 639 37,000  Level FlightAware
05:10AM 52.1440 6.9450 93° East 559 643 37,000  Level FlightAware
05:11AM 52.1530 7.1670 86° East 561 646 37,000  Level FlightAware
05:12AM 52.1610 7.3530 86° East 558 642 37,000  Level FlightAware
05:12AM 52.1700 7.5540 86° East 558 642 37,000  Level FlightAware
05:13AM 52.1770 7.7120 86° East 559 643 37,000  Level FlightAware
05:14AM 52.1860 7.9220 86° East 558 642 37,000  Level FlightAware
05:15AM 52.1920 8.0890 87° East 558 642 37,000  Level FlightAware
05:15AM 52.1990 8.2620 86° East 553 636 37,000  Level FlightAware
05:16AM 52.2060 8.4170 86° East 553 636 37,000  Level FlightAware
05:17AM 52.2160 8.5910 85° East 555 639 37,000  Level FlightAware
05:17AM 52.2220 8.7140 85° East 555 639 37,000  Level FlightAware
05:18AM 52.2300 8.8590 85° East 556 640 37,000  Level FlightAware
05:18AM 52.2390 9.0390 85° East 554 638 37,000  Level FlightAware
05:19AM 52.2450 9.1660 86° East 550 633 37,000  Level FlightAware
05:20AM 52.2530 9.3480 86° East 545 627 37,000  Level FlightAware
05:20AM 52.2620 9.5280 85° East 538 619 37,000  Level FlightAware
05:21AM 52.2700 9.7130 86° East 539 620 37,000  Level FlightAware
05:22AM 52.2780 9.9010 86° East 541 623 37,000  Level FlightAware
05:22AM 52.2840 10.0500 86° East 542 624 37,000  Level FlightAware
05:23AM 52.2880 10.1660 87° East 543 625 37,000  Level FlightAware
05:24AM 52.2940 10.3170 86° East 544 626 37,000  Level FlightAware
05:24AM 52.2990 10.4530 87° East 545 627 37,000  Level FlightAware
05:25AM 52.3060 10.6490 87° East 543 625 37,000  Level FlightAware
05:26AM 52.3020 10.8270 92° East 537 618 37,000  Level FlightAware
05:26AM 52.2990 10.9710 92° East 536 617 37,000  Level FlightAware
05:27AM 52.2960 11.1150 92° East 533 613 37,000  Level FlightAware
05:28AM 52.2910 11.2900 93° East 534 615 37,000  Level FlightAware
05:28AM 52.2870 11.4550 92° East 536 617 37,000  Level FlightAware
05:29AM 52.2830 11.5850 93° East 538 619 37,000  Level FlightAware
05:29AM 52.2790 11.7200 93° East 544 626 37,000  Level FlightAware
05:30AM 52.2740 11.8890 93° East 547 629 37,000  Level FlightAware
05:31AM 52.2690 12.0580 93° East 548 631 37,000  Level FlightAware
05:31AM 52.2620 12.2310 94° East 550 633 37,000  Level FlightAware
05:32AM 52.2567 12.3989 93° East 556 640 37,000  Level FlightAware ADS-B (ESMN)
05:33AM 52.2510 12.5680 93° East 558 642 37,000  Level FlightAware
05:33AM 52.2440 12.7380 94° East 556 640 37,000  Level FlightAware
05:35AM 52.2330 13.0120 94° East 555 639 37,000  Level FlightAware
05:35AM 52.2270 13.1690 94° East 553 636 37,000  Level FlightAware
05:36AM 52.2140 13.4500 94° East 557 641 37,000  Level FlightAware
05:37AM 52.2070 13.6170 94° East 558 642 37,000  Level FlightAware
05:38AM 52.1980 13.7990 95° East 560 644 37,000  Level FlightAware
05:38AM 52.1920 13.9210 95° East 559 643 37,000  Level FlightAware
05:39AM 52.1810 14.1450 94° East 561 646 37,000  Level FlightAware
05:40AM 52.1730 14.3030 95° East 560 644 37,000  Level FlightAware
05:40AM 52.1650 14.4450 95° East 558 642 37,000  Level FlightAware
05:41AM 52.1540 14.6530 95° East 556 640 37,000  Level FlightAware
05:42AM 52.1460 14.8030 95° East 553 636 37,000  Level FlightAware
05:42AM 52.1340 15.0020 96° East 555 639 37,000  Level FlightAware
05:43AM 52.1240 15.1740 95° East 552 635 37,000  Level FlightAware
05:44AM 52.1130 15.3570 96° East 552 635 37,000  Level FlightAware
05:45AM 52.1020 15.5290 96° East 550 633 37,000  Level FlightAware
05:45AM 52.0910 15.7050 96° East 550 633 37,000  Level FlightAware
05:46AM 52.0830 15.8290 96° East 552 635 37,000  Level FlightAware
05:46AM 52.0740 15.9660 96° East 551 634 37,000  Level FlightAware
05:47AM 52.0650 16.1110 96° East 549 632 37,000  Level FlightAware
05:48AM 52.0540 16.2630 97° East 551 634 37,000  Level FlightAware
05:48AM 52.0440 16.4110 96° East 549 632 37,000  Level FlightAware
05:49AM 52.0330 16.5600 97° East 548 631 37,000  Level FlightAware
05:49AM 52.0230 16.7050 96° East 547 629 37,000  Level FlightAware
05:50AM 52.0110 16.8690 97° East 548 631 37,000  Level FlightAware
05:51AM 51.9970 17.0480 97° East 550 633 37,000  Level FlightAware
05:51AM 51.9880 17.1630 97° East 549 632 37,000  Level FlightAware
05:52AM 51.9750 17.3350 97° East 548 631 37,000  Level FlightAware
05:53AM 51.9630 17.4870 97° East 547 629 37,000  Level FlightAware
05:53AM 51.9510 17.6420 97° East 546 628 37,000  Level FlightAware
05:54AM 51.9370 17.8030 98° East 542 624 37,000  Level FlightAware
05:55AM 51.9236 17.9700 97° East 541 623 37,000  Level FlightAware ADS-B
05:55AM 51.9089 18.1434 98° East 541 623 37,000  Level FlightAware ADS-B (EPSY / SZY)
05:56AM 51.9032 18.2098 98° East 540 621 37,000  Level FlightAware ADS-B (EPSY / SZY)
05:57AM 51.8830 18.4400 98° East 538 619 37,000  Level FlightAware
05:57AM 51.8680 18.6096 98° East 537 618 37,000  Level FlightAware ADS-B (EPSY / SZY)
05:58AM 51.8566 18.7371 98° East 537 618 37,000  Level FlightAware ADS-B (EPSY / SZY)
05:59AM 51.8402 18.9156 98° East 540 621 37,000  Level FlightAware ADS-B (EPSY / SZY)
05:59AM 51.8281 19.0462 98° East 540 621 37,000  Level FlightAware ADS-B (EPSY / SZY)
06:00AM 51.8115 19.2226 99° East 539 620 37,000  Level FlightAware ADS-B (EPSY / SZY)
06:00AM 51.7966 19.3783 99° East 535 616 37,000  Level FlightAware ADS-B (EPSY / SZY)
06:01AM 51.7818 19.5309 99° East 535 616 37,000  Level FlightAware ADS-B (EPSY / SZY)
06:02AM 51.7701 19.6501 99° East 533 613 37,000  Level FlightAware ADS-B (EPSY / SZY)
06:02AM 51.7586 19.7652 99° East 533 613 37,000  Level FlightAware ADS-B (EPSY / SZY)
06:03AM 51.7436 19.9152 99° East 531 611 37,000  Level FlightAware ADS-B (EPSY / SZY)
06:03AM 51.7311 20.0381 99° East 529 609 37,000  Level FlightAware ADS-B (EPSY / SZY)
06:04AM 51.7180 20.1653 99° East 529 609 37,000  Level FlightAware ADS-B (EPSY / SZY)
06:04AM 51.7148 20.1955 99° East 531 611 37,000  Level FlightAware ADS-B
06:04AM 51.7017 20.3215 99° East 530 610 37,000  Level FlightAware ADS-B (EPSY / SZY)
06:05AM 51.6870 20.4608 100° East 528 608 37,000  Level FlightAware ADS-B (EPSY / SZY)
06:05AM 51.6822 20.5063 100° East 524 603 37,000  Level FlightAware ADS-B
06:06AM 51.6599 20.7137 100° East 524 603 37,000  Level FlightAware ADS-B (EPSY / SZY)
06:07AM 51.6511 20.7948 100° East 523 602 37,000  Level FlightAware ADS-B
06:07AM 51.6460 20.8415 100° East 523 602 37,000  Level FlightAware ADS-B
06:07AM 51.6310 20.9772 100° East 521 600 37,000  Level FlightAware ADS-B
06:08AM 51.6183 21.0908 100° East 517 595 37,000  Level FlightAware ADS-B
06:08AM 51.6072 21.1900 100° East 518 596 37,000  Level FlightAware ADS-B
06:09AM 51.5905 21.3375 100° East 518 596 37,000  Level FlightAware ADS-B (EPSY / SZY)
06:09AM 51.5777 21.4492 100° East 517 595 37,000  Level FlightAware ADS-B (EPSY / SZY)
06:10AM 51.5652 21.5575 100° East 515 593 37,000  Level FlightAware ADS-B
06:10AM 51.5533 21.6589 101° East 515 593 37,000  Level FlightAware ADS-B
06:11AM 51.5358 21.8076 101° East 517 595 37,000  Level FlightAware ADS-B (EPSY / SZY)
06:12AM 51.5179 21.9579 101° East 516 594 37,000  Level FlightAware ADS-B (EPSY / SZY)
06:12AM 51.5026 22.0853 101° East 516 594 37,000  Level FlightAware ADS-B (EPSY / SZY)
06:13AM 51.4886 22.2006 101° East 517 595 37,000  Level FlightAware ADS-B (EPSY / SZY)
06:13AM 51.4698 22.3537 101° East 518 596 37,000  Level FlightAware ADS-B (EPSY / SZY)
06:14AM 51.4519 22.4979 101° East 519 597 37,000  Level FlightAware ADS-B (EPSY / SZY)
06:15AM 51.4368 22.6183 101° East 517 595 37,000  Level FlightAware ADS-B
06:15AM 51.4233 22.7250 101° East 517 595 37,000  Level FlightAware ADS-B
06:16AM 51.4041 22.8756 102° East 522 601 37,000  Level FlightAware ADS-B (EPSY / SZY)
06:16AM 51.3878 23.0025 102° East 521 600 37,000  Level FlightAware ADS-B
06:17AM 51.3763 23.0911 102° East 525 604 37,000  Level FlightAware ADS-B (EPSY / SZY)
06:17AM 51.3569 23.2393 102° East 526 605 37,000  Level FlightAware ADS-B
06:18AM 51.3514 23.2812 102° East 525 604 37,000  Level FlightAware ADS-B
06:18AM 51.3347 23.4072 102° East 525 604 37,000  Level FlightAware ADS-B (EPSY / SZY)
06:19AM 51.3196 23.5199 102° East 525 604 37,000  Level FlightAware ADS-B (EPSY / SZY)
06:19AM 51.3012 23.6568 102° East 526 605 37,000  Level FlightAware ADS-B (EPSY / SZY)
06:20AM 51.2847 23.7731 103° East 525 604 37,000  Level FlightAware ADS-B (EPSY / SZY)
06:20AM 51.2658 23.9021 103° East 523 602 37,000  Level FlightAware ADS-B (EPSY / SZY)
06:21AM 51.2452 24.0421 103° East 520 598 37,000  Level FlightAware ADS-B
06:21AM 51.2281 24.1581 103° East 524 603 37,000  Level FlightAware ADS-B (EPSY / SZY)
06:22AM 51.2011 24.3394 103° East 527 606 37,000  Level FlightAware ADS-B (EPSY / SZY)
06:23AM 51.1842 24.4516 103° East 527 606 37,000  Level FlightAware ADS-B (EPSY / SZY)
06:24AM 51.1584 24.6223 104° East 521 600 37,000  Level FlightAware ADS-B
06:25AM 51.1234 24.8502 104° East 523 602 37,000  Level FlightAware ADS-B
06:26AM 51.0880 25.0780 104° East 520 598 37,000  Level FlightAware
06:26AM 51.0682 25.2036 104° East 520 598 37,000  Level FlightAware ADS-B
06:27AM 51.0350 25.4100 104° East 523 602 37,000  Level FlightAware
06:28AM 51.0050 25.6000 104° East 522 601 37,000  Level FlightAware
06:29AM 50.9800 25.7520 105° East 521 600 37,000  Level FlightAware
06:29AM 50.9620 25.8630 104° East 521 600 37,000  Level FlightAware
06:30AM 50.9350 26.0260 105° East 523 602 37,000  Level FlightAware
06:30AM 50.9090 26.1810 105° East 524 603 37,000  Level FlightAware
06:31AM 50.8870 26.3140 105° East 524 603 37,000  Level FlightAware
06:32AM 50.8520 26.5210 105° East 521 600 37,000  Level FlightAware
06:33AM 50.8070 26.7820 105° East 520 598 37,000  Level FlightAware
06:34AM 50.7830 26.9180 106° East 520 598 37,000  Level FlightAware
06:34AM 50.7630 27.0320 105° East 519 597 37,000  Level FlightAware
06:35AM 50.7320 27.2080 105° East 519 597 37,000  Level FlightAware
06:36AM 50.6970 27.4040 106° East 521 600 37,000  Level FlightAware
06:37AM 50.6710 27.5480 106° East 521 600 37,000  Level FlightAware
06:37AM 50.6470 27.6790 106° East 519 597 37,000  Level FlightAware
06:38AM 50.6180 27.8390 106° East 518 596 37,000  Level FlightAware
06:39AM 50.5930 27.9700 107° East 517 595 37,000  Level FlightAware
06:40AM 50.5570 28.1660 106° East 519 597 37,000  Level FlightAware
06:40AM 50.5230 28.3440 107° East 518 596 37,000  Level FlightAware
06:41AM 50.4900 28.5160 107° East 516 594 37,000  Level FlightAware
06:42AM 50.4630 28.6520 107° East 517 595 37,000  Level FlightAware
06:42AM 50.4420 28.7350 112° Southeast 516 594 37,000  Level FlightAware
06:43AM 50.3970 28.8830 115° Southeast 517 595 37,000  Level FlightAware
06:44AM 50.3600 29.0060 115° Southeast 517 595 37,000  Level FlightAware
06:44AM 50.3220 29.1280 116° Southeast 517 595 37,000  Level FlightAware
06:45AM 50.2850 29.2470 116° Southeast 518 596 37,000  Level FlightAware
06:45AM 50.2480 29.3680 116° Southeast 516 594 37,000  Level FlightAware
06:46AM 50.1970 29.5270 117° Southeast 514 592 37,000  Level FlightAware
06:47AM 50.1500 29.6820 115° Southeast 515 593 37,000  Level FlightAware
06:48AM 50.1140 29.8020 115° Southeast 516 594 37,000  Level FlightAware
06:48AM 50.0740 29.9360 115° Southeast 516 594 37,000  Level FlightAware
06:49AM 50.0410 30.0440 115° Southeast 517 595 37,000  Level FlightAware
06:50AM 49.9890 30.2080 116° Southeast 517 595 37,000  Level FlightAware
06:50AM 49.9550 30.3170 116° Southeast 520 598 37,000  Level FlightAware
06:51AM 49.9180 30.4380 115° Southeast 520 598 37,000  Level FlightAware
06:51AM 49.8840 30.5460 116° Southeast 520 598 37,000  Level FlightAware
06:52AM 49.8450 30.6700 116° Southeast 521 600 37,000  Level FlightAware
06:53AM 49.7810 30.8700 116° Southeast 522 601 37,000  Level FlightAware
06:54AM 49.7290 31.0310 117° Southeast 523 602 37,000  Level FlightAware
06:54AM 49.6910 31.1520 116° Southeast 522 601 37,000  Level FlightAware
06:55AM 49.6480 31.2840 117° Southeast 521 600 37,000  Level FlightAware
06:56AM 49.5990 31.4330 117° Southeast 523 602 37,000  Level FlightAware
06:56AM 49.5620 31.5470 117° Southeast 524 603 37,000  Level FlightAware
06:57AM 49.5230 31.6660 117° Southeast 522 601 37,000  Level FlightAware
06:57AM 49.4800 31.7990 116° Southeast 521 600 37,000  Level FlightAware
06:58AM 49.4430 31.9140 116° Southeast 521 600 37,000  Level FlightAware
06:59AM 49.4000 32.0470 116° Southeast 521 600 37,000  Level FlightAware
06:59AM 49.3550 32.1820 117° Southeast 520 598 37,000  Level FlightAware
07:00AM 49.3160 32.2990 117° Southeast 522 601 37,000  Level FlightAware
07:01AM 49.2810 32.4040 117° Southeast 523 602 37,000  Level FlightAware
07:01AM 49.2410 32.5220 117° Southeast 524 603 37,000  Level FlightAware
07:02AM 49.1980 32.6480 118° Southeast 524 603 37,000  Level FlightAware
07:02AM 49.1530 32.7790 118° Southeast 523 602 37,000  Level FlightAware
07:03AM 49.1000 32.9350 117° Southeast 523 602 37,000  Level FlightAware
07:04AM 49.0550 33.0650 118° Southeast 522 601 37,000  Level FlightAware
07:05AM 49.0170 33.1740 118° Southeast 520 598 37,000  Level FlightAware
07:05AM 48.9660 33.3220 118° Southeast 511 588 37,000  Level FlightAware
07:06AM 48.8910 33.5450 117° Southeast 513 590 37,000  Level FlightAware
07:07AM 48.8440 33.6880 116° Southeast 511 588 37,000  Level FlightAware
07:08AM 48.8010 33.8180 117° Southeast 506 582 37,000  Level FlightAware
07:09AM 48.7590 33.9430 117° Southeast 505 581 37,000  Level FlightAware
07:09AM 48.7220 34.0520 117° Southeast 506 582 37,000  Level FlightAware
07:10AM 48.6840 34.1640 117° Southeast 504 580 37,000  Level FlightAware
07:10AM 48.6480 34.2700 117° Southeast 503 579 37,000  Level FlightAware
07:11AM 48.5930 34.4310 117° Southeast 504 580 37,000  Level FlightAware
07:12AM 48.5500 34.5580 117° Southeast 506 582 37,000  Level FlightAware
07:13AM 48.4960 34.7120 118° Southeast 502 578 37,000  Level FlightAware
07:13AM 48.4680 34.7920 118° Southeast 500 575 37,000  Level FlightAware
07:14AM 48.4190 34.9340 117° Southeast 499 574 37,000  Level FlightAware
07:15AM 48.3690 35.0760 118° Southeast 501 577 37,000  Level FlightAware
07:15AM 48.3360 35.1690 118° Southeast 500 575 37,000  Level FlightAware
07:16AM 48.2920 35.2990 117° Southeast 500 575 37,000  Level FlightAware
07:16AM 48.2560 35.4010 118° Southeast 500 575 37,000  Level FlightAware
07:17AM 48.2190 35.5060 118° Southeast 501 577 37,000  Level FlightAware
07:18AM 48.1790 35.6210 118° Southeast 502 578 37,000  Level FlightAware
07:18AM 48.1320 35.7530 118° Southeast 503 579 37,000  Level FlightAware
07:19AM 48.0910 35.8680 118° Southeast 502 578 37,000  Level FlightAware
07:20AM 48.0480 35.9910 118° Southeast 502 578 37,000  Level FlightAware
07:20AM 48.0080 36.1010 118° Southeast 501 577 37,000  Level FlightAware
07:21AM 47.9590 36.2540 116° Southeast 498 573 37,000  Level FlightAware
07:21AM 47.9380 36.3470 109° East 499 574 37,000  Level FlightAware
07:22AM 47.9060 36.5010 107° East 504 580 37,000  Level FlightAware
07:23AM 47.8890 36.5810 108° East 505 581 37,000  Level FlightAware
07:23AM 47.8610 36.7110 108° East 504 580 37,000  Level FlightAware
07:24AM 47.8290 36.8590 108° East 505 581 37,000  Level FlightAware
07:25AM 47.8060 36.9660 108° East 505 581 37,000  Level FlightAware
07:25AM 47.7770 37.1260 105° East 505 581 37,000  Level FlightAware
07:26AM 47.7670 37.2360 98° East 505 581 37,000 -120 Level FlightAware
07:27AM 47.7500 37.3580 102° East 506 582 36,900  Descending FlightAware
07:27AM 47.7750 37.5080 76° East 504 580 37,000  Climbing FlightAware
07:28AM 47.7950 37.7360 82° East 505 581 37,000  Level FlightAware
07:29AM 47.8070 37.8730 83° East 503 579 37,000  Level FlightAware
07:30AM 47.8210 38.0330 83° East 503 579 37,000  Level FlightAware
07:30AM 47.8310 38.1450 82° East 504 580 37,000  Level FlightAware
07:31AM 47.8400 38.2560 83° East 504 580 37,000  Level FlightAware
07:32AM 47.8510 38.3900 83° East 503 579 37,000  Level FlightAware
07:32AM 47.8600 38.5030 83° East 500 575 37,000  Level FlightAware
07:33AM 47.8730 38.6520 83° East 500 575 37,000  Level FlightAware
07:33AM 47.8820 38.7770 84° East 499 574 37,000  Level FlightAware
07:34AM 47.8880 38.9030 86° East 502 578 37,000  Level FlightAware
07:34AM 47.8890 38.9600 88° East 501 577 37,000  Level FlightAware
07:35AM 47.8680 39.1560 99° East 511 588 37,000  Level FlightAware
07:36AM 47.8530 39.2250 108° East 513 590 37,000  Level FlightAware
07:36AM 47.8040 39.3810 115° Southeast 516 594 37,000  Level FlightAware
07:37AM 47.7650 39.5080 115° Southeast 513 590 37,000  Level FlightAware
07:38AM 47.7340 39.6040 116° Southeast 508 585 37,000  Level FlightAware
07:39AM 47.6730 39.7940 115° Southeast 479 551 37,000  Level FlightAware
07:39AM 47.6330 39.9190 115° Southeast 503 579 37,000  Level FlightAware
07:40AM 47.5560 40.1530 116° Southeast 507 583 37,000  Level FlightAware
07:41AM 47.5270 40.2450 115° Southeast 506 582 37,000  Level FlightAware
07:42AM 47.4960 40.3380 116° Southeast 504 580 37,000  Level FlightAware
07:42AM 47.4540 40.4640 116° Southeast 501 577 37,000  Level FlightAware
07:43AM 47.4190 40.5710 116° Southeast 504 580 37,000  Level FlightAware
07:43AM 47.3800 40.6890 116° Southeast 505 581 37,000  Level FlightAware
07:44AM 47.3440 40.7990 116° Southeast 500 575 37,000  Level FlightAware
07:45AM 47.3060 40.9110 117° Southeast 495 570 37,000  Level FlightAware
07:45AM 47.2730 41.0120 116° Southeast 495 570 37,000  Level FlightAware
07:46AM 47.2370 41.1180 117° Southeast 493 567 37,000  Level FlightAware
07:46AM 47.2070 41.2070 116° Southeast 491 565 37,000  Level FlightAware
07:47AM 47.1720 41.3110 116° Southeast 491 565 37,000  Level FlightAware
07:48AM 47.1250 41.4460 117° Southeast 496 571 37,000  Level FlightAware
07:48AM 47.0910 41.5440 117° Southeast 499 574 37,000  Level FlightAware
07:49AM 47.0420 41.6860 117° Southeast 501 577 37,000  Level FlightAware
07:50AM 46.9940 41.8240 117° Southeast 500 575 37,000  Level FlightAware
07:50AM 46.9530 41.9440 117° Southeast 500 575 37,000  Level FlightAware
07:51AM 46.9120 42.0610 117° Southeast 498 573 37,000  Level FlightAware
07:52AM 46.8750 42.1650 117° Southeast 495 570 37,000  Level FlightAware
07:52AM 46.8400 42.2660 117° Southeast 496 571 37,000  Level FlightAware
07:53AM 46.8140 42.3380 118° Southeast 500 575 37,000  Level FlightAware
07:53AM 46.7700 42.4630 117° Southeast 501 577 37,000  Level FlightAware
07:54AM 46.7320 42.5670 118° Southeast 507 583 37,000  Level FlightAware
07:54AM 46.6920 42.6780 118° Southeast 510 587 37,000  Level FlightAware
07:55AM 46.6460 42.8070 117° Southeast 508 585 37,000  Level FlightAware
07:56AM 46.5910 42.9580 118° Southeast 505 581 37,000  Level FlightAware
07:57AM 46.5420 43.0930 118° Southeast 508 585 37,000  Level FlightAware
07:57AM 46.5030 43.1990 118° Southeast 509 586 37,000  Level FlightAware
07:58AM 46.4600 43.3370 114° Southeast 513 590 37,000  Level FlightAware
07:59AM 46.4390 43.4240 109° East 514 592 37,000  Level FlightAware
07:59AM 46.4060 43.5620 109° East 513 590 37,000  Level FlightAware
08:00AM 46.3820 43.6570 110° East 512 589 37,000  Level FlightAware
08:00AM 46.3500 43.7860 110° East 514 592 37,000  Level FlightAware
08:01AM 46.3210 43.9040 110° East 513 590 37,000  Level FlightAware
08:02AM 46.2950 44.0090 110° East 513 590 37,000  Level FlightAware
08:02AM 46.2800 44.0680 110° East 513 590 37,000  Level FlightAware
08:03AM 46.2410 44.2200 110° East 512 589 37,000  Level FlightAware
08:04AM 46.1680 44.5030 110° East 511 588 37,000  Level FlightAware
08:05AM 46.1360 44.6270 110° East 509 586 37,000  Level FlightAware
08:06AM 46.0990 44.7710 110° East 508 585 37,000  Level FlightAware
08:06AM 46.0560 44.9350 111° Southeast 510 587 37,000  Level FlightAware
08:07AM 46.0290 45.0380 111° Southeast 509 586 37,000  Level FlightAware
08:08AM 45.9980 45.1540 111° Southeast 510 587 37,000  Level FlightAware
08:08AM 45.9620 45.2910 111° Southeast 509 586 37,000  Level FlightAware
08:09AM 45.9430 45.3600 112° Southeast 509 586 37,000  Level FlightAware
08:09AM 45.9080 45.4920 111° Southeast 509 586 37,000  Level FlightAware
08:10AM 45.8730 45.6220 111° Southeast 508 585 37,000  Level FlightAware
08:10AM 45.8570 45.6820 111° Southeast 509 586 37,000  Level FlightAware
08:11AM 45.8050 45.8730 111° Southeast 511 588 37,000  Level FlightAware
08:12AM 45.7690 46.0030 112° Southeast 514 592 37,000  Level FlightAware
08:13AM 45.7280 46.1550 111° Southeast 511 588 37,000  Level FlightAware
08:14AM 45.6730 46.3540 112° Southeast 512 589 37,000  Level FlightAware
08:14AM 45.6510 46.4310 112° Southeast 513 590 37,000  Level FlightAware
08:15AM 45.6230 46.5360 111° Southeast 513 590 37,000  Level FlightAware
08:16AM 45.5680 46.7260 112° Southeast 509 586 37,000  Level FlightAware
08:16AM 45.5430 46.8150 112° Southeast 511 588 37,000  Level FlightAware
08:17AM 45.4840 47.0230 112° Southeast 510 587 37,000  Level FlightAware
08:18AM 45.4440 47.1610 112° Southeast 510 587 37,000  Level FlightAware
08:19AM 45.4100 47.2800 112° Southeast 511 588 37,000  Level FlightAware
08:20AM 45.3680 47.4260 112° Southeast 510 587 37,000  Level FlightAware
08:20AM 45.3420 47.5160 112° Southeast 510 587 37,000  Level FlightAware
08:21AM 45.3180 47.5960 113° Southeast 508 585 37,000  Level FlightAware
08:22AM 45.2730 47.7570 112° Southeast 508 585 37,000  Level FlightAware
08:22AM 45.2470 47.8400 114° Southeast 506 582 37,000  Level FlightAware
08:23AM 45.2070 47.9760 113° Southeast 505 581 37,000  Level FlightAware
08:23AM 45.1680 48.1050 113° Southeast 503 579 37,000  Level FlightAware
08:24AM 45.1260 48.2460 113° Southeast 503 579 37,000  Level FlightAware
08:25AM 45.0870 48.3740 113° Southeast 505 581 37,000  Level FlightAware
08:25AM 45.0570 48.4750 113° Southeast 505 581 37,000  Level FlightAware
08:26AM 45.0130 48.6180 113° Southeast 505 581 37,000  Level FlightAware
08:27AM 44.9790 48.7310 113° Southeast 506 582 37,000  Level FlightAware
08:27AM 44.9450 48.8400 114° Southeast 506 582 37,000  Level FlightAware
08:28AM 44.9040 48.9750 113° Southeast 504 580 37,000  Level FlightAware
08:29AM 44.8660 49.0960 114° Southeast 504 580 37,000  Level FlightAware
08:29AM 44.8380 49.1920 112° Southeast 504 580 37,000  Level FlightAware
08:30AM 44.8150 49.2610 115° Southeast 504 580 37,000  Level FlightAware
08:31AM 44.7760 49.3900 113° Southeast 504 580 37,000  Level FlightAware
08:31AM 44.7100 49.5500 120° Southeast 506 582 37,000  Level FlightAware
08:32AM 44.6580 49.6480 127° Southeast 505 581 37,000  Level FlightAware
08:33AM 44.5930 49.7730 126° Southeast 505 581 37,000  Level FlightAware
08:33AM 44.5320 49.8850 127° Southeast 505 581 37,000  Level FlightAware
08:34AM 44.4840 49.9750 127° Southeast 505 581 37,000  Level FlightAware
08:35AM 44.4400 50.0570 127° Southeast 505 581 37,000  Level FlightAware
08:35AM 44.3960 50.1390 127° Southeast 505 581 37,000  Level FlightAware
08:37AM 44.2800 50.3480 128° Southeast 499 574 37,000  Level FlightAware
08:37AM 44.2350 50.4310 127° Southeast 499 574 37,000  Level FlightAware
08:38AM 44.1620 50.5600 128° Southeast 499 574 37,000  Level FlightAware
08:38AM 44.1290 50.6200 127° Southeast 497 572 37,000  Level FlightAware
08:39AM 44.0660 50.7320 128° Southeast 496 571 37,000  Level FlightAware
08:40AM 44.0060 50.8430 127° Southeast 496 571 37,000  Level FlightAware
08:40AM 43.9630 50.9230 127° Southeast 496 571 37,000  Level FlightAware
08:41AM 43.9160 51.0010 130° Southeast 495 570 37,000  Level FlightAware
08:42AM 43.8510 51.1160 128° Southeast 495 570 37,000  Level FlightAware
08:43AM 43.7490 51.2540 136° Southeast 490 564 37,000  Level FlightAware
08:43AM 43.7070 51.3140 134° Southeast 488 562 37,000  Level FlightAware
08:44AM 43.6580 51.3830 134° Southeast 488 562 37,000  Level FlightAware
08:44AM 43.6110 51.4480 135° Southeast 490 564 37,000  Level FlightAware
08:45AM 43.5100 51.5880 135° Southeast 490 564 37,000  Level FlightAware
08:46AM 43.4360 51.6910 135° Southeast 493 567 37,000  Level FlightAware
08:47AM 43.3860 51.7600 135° Southeast 495 570 37,000  Level FlightAware
08:47AM 43.3200 51.8500 135° Southeast 494 568 37,000  Level FlightAware
08:48AM 43.2560 51.9380 135° Southeast 494 568 37,000  Level FlightAware
08:48AM 43.1860 52.0330 135° Southeast 496 571 37,000  Level FlightAware
08:49AM 43.1410 52.0940 135° Southeast 495 570 37,000  Level FlightAware
08:50AM 43.0770 52.1810 135° Southeast 495 570 37,000  Level FlightAware
08:51AM 42.9840 52.3070 135° Southeast 493 567 37,000  Level FlightAware
08:51AM 42.9600 52.3390 136° Southeast 493 567 37,000  Level FlightAware
08:52AM 42.9040 52.4160 135° Southeast 494 568 37,000  Level FlightAware
08:52AM 42.8540 52.4830 135° Southeast 494 568 37,000  Level FlightAware
08:53AM 42.8050 52.5510 134° Southeast 494 568 37,000  Level FlightAware
08:53AM 42.7550 52.6180 135° Southeast 494 568 37,000  Level FlightAware
08:54AM 42.7060 52.6850 135° Southeast 494 568 37,000  Level FlightAware
08:55AM 42.6560 52.7520 135° Southeast 494 568 37,000  Level FlightAware
08:55AM 42.6060 52.8220 134° Southeast 494 568 37,000  Level FlightAware
08:56AM 42.5710 52.8680 136° Southeast 494 568 37,000  Level FlightAware
08:56AM 42.5050 52.9580 135° Southeast 494 568 37,000  Level FlightAware
08:57AM 42.4390 53.0470 135° Southeast 494 568 37,000  Level FlightAware
08:58AM 42.4060 53.0920 135° Southeast 494 568 37,000  Level FlightAware
08:58AM 42.3400 53.1810 135° Southeast 494 568 37,000  Level FlightAware
08:59AM 42.2910 53.2480 135° Southeast 494 568 37,000  Level FlightAware
09:00AM 42.2250 53.3370 135° Southeast 494 568 37,000  Level FlightAware
09:00AM 42.1730 53.4070 135° Southeast 494 568 37,000  Level FlightAware
09:01AM 42.1220 53.4760 135° Southeast 494 568 37,000  Level FlightAware
09:04AM 41.9688 53.8632 118° Southeast  Level Estimated
09:05AM 41.9063 54.0197 118° Southeast  Level Estimated
09:06AM 41.8436 54.1758 118° Southeast  Level Estimated
09:07AM 41.7807 54.3317 118° Southeast  Level Estimated
09:08AM 41.7175 54.4872 118° Southeast  Level Estimated
09:09AM 41.6542 54.6425 119° Southeast  Level Estimated
09:10AM 41.5907 54.7974 119° Southeast  Level Estimated
09:11AM 41.5269 54.9520 119° Southeast  Level Estimated
09:12AM 41.4630 55.1063 119° Southeast  Level Estimated
09:13AM 41.3988 55.2603 119° Southeast  Level Estimated
09:14AM 41.3345 55.4141 119° Southeast  Level Estimated
09:15AM 41.2699 55.5675 119° Southeast  Level Estimated
09:16AM 41.2051 55.7206 119° Southeast  Level Estimated
09:17AM 41.1401 55.8734 119° Southeast  Level Estimated
09:18AM 41.0750 56.0259 120° Southeast  Level Estimated
09:19AM 41.0096 56.1781 120° Southeast  Level Estimated
09:20AM 40.9440 56.3299 120° Southeast  Level Estimated
09:21AM 40.8782 56.4815 120° Southeast  Level Estimated
09:22AM 40.8123 56.6328 120° Southeast  Level Estimated
09:23AM 40.7461 56.7838 120° Southeast  Level Estimated
09:24AM 40.6797 56.9345 120° Southeast  Level Estimated
09:25AM 40.6132 57.0849 120° Southeast  Level Estimated
09:26AM 40.5464 57.2350 120° Southeast  Level Estimated
09:27AM 40.4795 57.3848 120° Southeast  Level Estimated
09:28AM 40.4123 57.5343 121° Southeast  Level Estimated
09:29AM 40.3450 57.6835 121° Southeast  Level Estimated
09:30AM 40.2775 57.8324 121° Southeast  Level Estimated
09:31AM 40.2097 57.9809 121° Southeast  Level Estimated
09:32AM 40.1418 58.1292 121° Southeast  Level Estimated
09:33AM 40.0737 58.2772 121° Southeast  Level Estimated
09:34AM 40.0054 58.4249 121° Southeast  Level Estimated
09:35AM 39.9370 58.5723 121° Southeast  Level Estimated
09:36AM 39.8683 58.7195 121° Southeast  Level Estimated
09:37AM 39.7995 58.8663 121° Southeast  Level Estimated
09:38AM 39.7304 59.0128 121° Southeast  Level Estimated
09:39AM 39.6612 59.1590 122° Southeast  Level Estimated
09:40AM 39.5918 59.3050 122° Southeast  Level Estimated
09:41AM 39.5223 59.4506 122° Southeast  Level Estimated
09:42AM 39.4525 59.5960 122° Southeast  Level Estimated
09:43AM 39.3826 59.7410 122° Southeast  Level Estimated
09:44AM 39.3124 59.8858 122° Southeast  Level Estimated
09:45AM 39.2421 60.0303 122° Southeast  Level Estimated
09:46AM 39.1717 60.1745 122° Southeast  Level Estimated
09:47AM 39.1010 60.3184 122° Southeast  Level Estimated
09:48AM 39.0302 60.4620 122° Southeast  Level Estimated
09:49AM 38.9592 60.6053 122° Southeast  Level Estimated
09:50AM 38.8880 60.7483 123° Southeast  Level Estimated
09:51AM 38.8167 60.8911 123° Southeast  Level Estimated
09:52AM 38.7451 61.0336 123° Southeast  Level Estimated
09:53AM 38.6734 61.1758 123° Southeast  Level Estimated
09:54AM 38.6016 61.3176 123° Southeast  Level Estimated
09:55AM 38.5295 61.4593 123° Southeast  Level Estimated
09:56AM 38.4573 61.6006 123° Southeast  Level Estimated
09:57AM 38.3849 61.7416 123° Southeast  Level Estimated
09:58AM 38.3124 61.8824 123° Southeast  Level Estimated
09:59AM 38.2397 62.0229 123° Southeast  Level Estimated
10:00AM 38.1668 62.1631 123° Southeast  Level Estimated
10:01AM 38.0937 62.3030 124° Southeast  Level Estimated
10:02AM 38.0205 62.4426 124° Southeast  Level Estimated
10:03AM 37.9471 62.5820 124° Southeast  Level Estimated
10:04AM 37.8736 62.7211 124° Southeast  Level Estimated
10:05AM 37.7999 62.8599 124° Southeast  Level Estimated
10:06AM 37.7260 62.9984 124° Southeast  Level Estimated
10:07AM 37.6520 63.1367 124° Southeast  Level Estimated
10:08AM 37.5778 63.2746 124° Southeast  Level Estimated
10:09AM 37.5034 63.4123 124° Southeast  Level Estimated
10:10AM 37.4289 63.5498 124° Southeast  Level Estimated
10:11AM 37.3542 63.6869 124° Southeast  Level Estimated
10:12AM 37.2794 63.8238 124° Southeast  Level Estimated
10:13AM 37.2044 63.9604 125° Southeast  Level Estimated
10:14AM 37.1292 64.0967 125° Southeast  Level Estimated
10:15AM 37.0540 64.2328 125° Southeast  Level Estimated
10:16AM 36.9785 64.3686 125° Southeast  Level Estimated
10:17AM 36.9029 64.5042 125° Southeast  Level Estimated
10:18AM 36.8271 64.6394 125° Southeast  Level Estimated
10:19AM 36.7512 64.7744 125° Southeast  Level Estimated
10:20AM 36.6751 64.9091 125° Southeast  Level Estimated
10:21AM 36.5989 65.0436 125° Southeast  Level Estimated
10:22AM 36.5225 65.1778 125° Southeast  Level Estimated
10:23AM 36.4460 65.3117 125° Southeast  Level Estimated
10:24AM 36.3694 65.4454 125° Southeast  Level Estimated
10:25AM 36.2925 65.5788 126° Southeast  Level Estimated
10:26AM 36.2156 65.7119 126° Southeast  Level Estimated
10:27AM 36.1385 65.8448 126° Southeast  Level Estimated
10:28AM 36.0612 65.9774 126° Southeast  Level Estimated
10:29AM 35.9838 66.1097 126° Southeast  Level Estimated
10:30AM 35.9062 66.2418 126° Southeast  Level Estimated
10:31AM 35.8285 66.3736 126° Southeast  Level Estimated
10:32AM 35.7507 66.5052 126° Southeast  Level Estimated
10:33AM 35.6727 66.6365 126° Southeast  Level Estimated
10:34AM 35.5946 66.7676 126° Southeast  Level Estimated
10:35AM 35.5163 66.8984 126° Southeast  Level Estimated
10:36AM 35.4379 67.0290 126° Southeast  Level Estimated
10:37AM 35.3593 67.1593 126° Southeast  Level Estimated
10:38AM 35.2807 67.2893 127° Southeast  Level Estimated
10:39AM 35.2018 67.4191 127° Southeast  Level Estimated
10:40AM 35.1229 67.5486 127° Southeast  Level Estimated
10:41AM 35.0438 67.6779 127° Southeast  Level Estimated
10:42AM 34.9645 67.8070 127° Southeast  Level Estimated
10:43AM 34.8852 67.9358 127° Southeast  Level Estimated
10:44AM 34.8056 68.0643 127° Southeast  Level Estimated
10:45AM 34.7260 68.1926 127° Southeast  Level Estimated
10:46AM 34.6462 68.3206 127° Southeast  Level Estimated
10:46AM 32.9870 69.2480 127° Southeast 512 589 39,000  Level FlightAware
10:47AM 34.5663 68.4484 127° Southeast  Level Estimated
10:47AM 32.9070 69.3750 127° Southeast 512 589 39,000  Level FlightAware
10:48AM 34.4863 68.5760 127° Southeast  Level Estimated
10:48AM 32.8780 69.4210 127° Southeast 512 589 39,000  Level FlightAware
10:49AM 32.7510 69.6100 129° Southeast 512 589 39,000  Level FlightAware
10:50AM 32.6960 69.6930 128° Southeast 513 590 39,000  Level FlightAware
10:50AM 32.6280 69.7950 128° Southeast 513 590 39,000  Level FlightAware
10:51AM 32.6190 69.8090 127° Southeast 513 590 39,000  Level FlightAware
10:52AM 32.5400 69.9290 128° Southeast 513 590 39,000  Level FlightAware
10:52AM 32.4770 70.0220 129° Southeast 515 593 39,000  Level FlightAware
10:53AM 32.4190 70.1090 128° Southeast 516 594 39,000  Level FlightAware
10:53AM 32.3610 70.1950 129° Southeast 518 596 39,000  Level FlightAware
10:54AM 32.3130 70.2700 127° Southeast 518 596 39,000  Level FlightAware
10:55AM 32.2560 70.3590 127° Southeast 519 597 39,000  Level FlightAware
10:55AM 32.2140 70.4240 127° Southeast 519 597 39,000  Level FlightAware
10:56AM 32.1470 70.5280 127° Southeast 520 598 39,000  Level FlightAware
10:57AM 32.0850 70.6220 128° Southeast 521 600 39,000  Level FlightAware
10:57AM 32.0260 70.7120 128° Southeast 520 598 39,000  Level FlightAware
10:58AM 31.9720 70.7940 128° Southeast 522 601 39,000  Level FlightAware
10:59AM 31.9050 70.9040 126° Southeast 519 597 39,000  Level FlightAware
10:59AM 31.8580 71.0060 118° Southeast 519 597 39,000  Level FlightAware
11:00AM 31.8120 71.1100 117° Southeast 521 600 39,000  Level FlightAware
11:01AM 31.7750 71.1920 118° Southeast 520 598 39,000  Level FlightAware
11:01AM 31.7310 71.2880 118° Southeast 519 597 39,000  Level FlightAware
11:02AM 31.6490 71.4700 118° Southeast 516 594 39,000  Level FlightAware
11:03AM 31.6140 71.5460 118° Southeast 516 594 39,000  Level FlightAware
11:04AM 31.5740 71.6340 118° Southeast 518 596 39,000  Level FlightAware
11:04AM 31.5280 71.7330 119° Southeast 517 595 39,000  Level FlightAware
11:05AM 31.4880 71.8210 118° Southeast 516 594 39,000  Level FlightAware
11:06AM 31.4360 71.9340 118° Southeast 515 593 39,000  Level FlightAware
11:06AM 31.3870 72.0410 118° Southeast 515 593 39,000  Level FlightAware
11:07AM 31.3410 72.1530 116° Southeast 512 589 39,000  Level FlightAware
11:08AM 31.3100 72.2790 106° East 511 588 39,000  Level FlightAware
11:09AM 31.2950 72.3920 99° East 509 586 39,000  Level FlightAware
11:09AM 31.2940 72.4860 91° East 507 583 39,000 180 Level FlightAware
11:10AM 31.2980 72.5610 86° East 504 580 39,200 1,080 Climbing FlightAware
11:10AM 31.3100 72.6590 82° East 492 566 40,200 1,200 Climbing FlightAware
11:11AM 31.3170 72.7180 82° East 495 570 40,400 420 Climbing FlightAware
11:12AM 31.3350 72.8760 82° East 504 580 40,800 360 Climbing FlightAware
11:12AM 31.3460 72.9700 82° East 508 585 41,000 120 Climbing FlightAware
11:13AM 31.3580 73.0830 83° East 513 590 41,000  Level FlightAware
11:14AM 31.3680 73.2040 84° East 516 594 41,000  Level FlightAware
11:14AM 31.3770 73.3120 84° East 520 598 41,000  Level FlightAware
11:15AM 31.3880 73.4280 84° East 519 597 41,000  Level FlightAware
11:15AM 31.3950 73.5100 84° East 520 598 41,000  Level FlightAware
11:16AM 31.4050 73.6320 84° East 522 601 41,000  Level FlightAware
11:17AM 31.4160 73.7550 84° East 522 601 41,000  Level FlightAware
11:18AM 31.4350 73.9390 83° East 524 603 41,000  Level FlightAware
11:19AM 31.4260 74.1300 93° East 524 603 41,000  Level FlightAware
11:20AM 31.4110 74.2110 102° East 523 602 41,000  Level FlightAware
11:20AM 31.3900 74.3150 103° East 523 602 41,000  Level FlightAware
11:21AM 31.3700 74.4290 102° East 519 597 41,000  Level FlightAware
11:21AM 31.3520 74.5330 101° East 519 597 41,000  Level FlightAware
11:22AM 31.3380 74.6010 104° East 520 598 41,000  Level FlightAware
11:23AM 31.3050 74.7440 105° East 520 598 41,000  Level FlightAware
11:24AM 31.2860 74.8300 104° East 520 598 41,000  Level FlightAware
11:24AM 31.2670 74.9080 106° East 520 598 41,000  Level FlightAware
11:25AM 31.2480 74.9910 105° East 520 598 41,000  Level FlightAware
11:25AM 31.2290 75.0750 105° East 520 598 41,000  Level FlightAware
11:26AM 31.2100 75.1600 105° East 520 598 41,000  Level FlightAware
11:27AM 31.1840 75.2710 105° East 520 598 41,000  Level FlightAware
11:28AM 31.1530 75.4090 105° East 520 598 41,000  Level FlightAware
11:28AM 31.1340 75.4900 105° East 520 598 41,000  Level FlightAware
11:29AM 31.1140 75.5780 105° East 520 598 41,000  Level FlightAware
11:30AM 31.0960 75.6560 105° East 520 598 41,000  Level FlightAware
11:30AM 31.0700 75.7670 105° East 520 598 41,000  Level FlightAware
11:31AM 31.0450 75.8800 104° East 520 598 41,000  Level FlightAware
11:32AM 31.0290 75.9490 105° East 520 598 41,000  Level FlightAware
11:33AM 30.8140 76.3790 120° Southeast 987 1136 41,000  Level FlightAware
11:34AM 30.7830 76.4710 111° Southeast 521 600 41,000  Level FlightAware
11:35AM 30.7570 76.5510 111° Southeast 521 600 41,000  Level FlightAware
11:35AM 30.7300 76.6310 111° Southeast 521 600 41,000  Level FlightAware
11:36AM 30.7050 76.7090 110° East 521 600 41,000  Level FlightAware
11:36AM 30.6480 76.8240 120° Southeast 514 592 41,000  Level FlightAware
11:37AM 30.6110 76.8920 122° Southeast 512 589 41,000  Level FlightAware
11:37AM 30.5730 76.9630 122° Southeast 512 589 41,000  Level FlightAware
11:38AM 30.4530 77.1140 133° Southeast 500 575 41,000  Level FlightAware
11:39AM 30.4060 77.1650 137° Southeast 497 572 41,000  Level FlightAware
11:40AM 30.3350 77.2310 141° Southeast 494 568 41,000  Level FlightAware
11:40AM 30.2480 77.2840 152° Southeast 483 556 41,000  Level FlightAware
11:41AM 30.1910 77.3190 152° Southeast 483 556 41,000  Level FlightAware
11:42AM 30.0930 77.3780 152° Southeast 482 555 41,000  Level FlightAware
11:42AM 30.0310 77.4150 153° Southeast 483 556 41,000  Level FlightAware
11:43AM 29.9460 77.4780 147° Southeast 492 566 41,000  Level FlightAware
11:44AM 29.8420 77.5730 142° Southeast 489 563 41,000  Level FlightAware
11:45AM 29.7690 77.6390 142° Southeast 489 563 41,000  Level FlightAware
11:45AM 29.6590 77.7360 143° Southeast 488 562 41,000  Level FlightAware
11:46AM 29.5790 77.8080 142° Southeast 488 562 41,000  Level FlightAware
11:47AM 29.5100 77.8690 142° Southeast 489 563 41,000  Level FlightAware
11:47AM 29.4340 77.9360 142° Southeast 491 565 41,000  Level FlightAware
11:48AM 29.3590 78.0030 142° Southeast 495 570 41,000  Level FlightAware
11:49AM 29.2780 78.0740 143° Southeast 495 570 41,000  Level FlightAware
11:49AM 29.2160 78.1290 142° Southeast 494 568 41,000  Level FlightAware
11:50AM 29.1390 78.1960 143° Southeast 495 570 41,000  Level FlightAware
11:51AM 29.0210 78.3000 142° Southeast 497 572 41,000  Level FlightAware
11:52AM 28.9590 78.3540 143° Southeast 496 571 41,000  Level FlightAware
11:53AM 28.8800 78.4230 143° Southeast 499 574 41,000  Level FlightAware
11:53AM 28.8310 78.4650 143° Southeast 500 575 41,000  Level FlightAware
11:54AM 28.7650 78.5230 142° Southeast 500 575 41,000  Level FlightAware
11:54AM 28.6840 78.5930 143° Southeast 499 574 41,000  Level FlightAware
11:55AM 28.6100 78.6570 143° Southeast 496 571 41,000  Level FlightAware
11:56AM 28.5270 78.7300 142° Southeast 489 563 41,000  Level FlightAware
11:56AM 28.4520 78.7980 141° Southeast 497 572 41,000  Level FlightAware
11:57AM 28.4110 78.8430 136° Southeast 502 578 41,000  Level FlightAware
11:58AM 28.3370 78.9290 134° Southeast 504 580 41,000  Level FlightAware
11:58AM 28.2800 78.9940 135° Southeast 506 582 41,000  Level FlightAware
11:59AM 28.1960 79.0930 134° Southeast 506 582 41,000  Level FlightAware
12:00PM 28.1490 79.1480 134° Southeast 506 582 41,000  Level FlightAware
12:00PM 28.0960 79.2100 134° Southeast 506 582 41,000  Level FlightAware
12:01PM 28.0630 79.2490 134° Southeast 506 582 41,000  Level FlightAware
12:02PM 27.9950 79.3290 134° Southeast 506 582 41,000  Level FlightAware
12:02PM 27.9290 79.4060 134° Southeast 506 582 41,000  Level FlightAware
12:03PM 27.8820 79.4610 134° Southeast 506 582 41,000  Level FlightAware
12:04PM 27.8310 79.5210 134° Southeast 506 582 41,000  Level FlightAware
12:04PM 27.7800 79.5810 134° Southeast 506 582 41,000  Level FlightAware
12:05PM 27.7460 79.6200 135° Southeast 506 582 41,000  Level FlightAware
12:05PM 27.6990 79.6750 134° Southeast 506 582 41,000  Level FlightAware
12:06PM 27.6470 79.7360 134° Southeast 506 582 41,000  Level FlightAware
12:06PM 27.5970 79.7940 134° Southeast 506 582 41,000  Level FlightAware
12:07PM 27.5500 79.8490 134° Southeast 506 582 41,000  Level FlightAware
12:08PM 27.4980 79.9110 133° Southeast 506 582 41,000  Level FlightAware
12:08PM 27.4670 79.9460 135° Southeast 506 582 41,000  Level FlightAware
12:08PM 27.4510 79.9660 132° Southeast 506 582 41,000  Level FlightAware
12:12PM 27.1450 80.3154 135° Southeast  Level Estimated
12:13PM 27.0521 80.4209 135° Southeast  Level Estimated
12:14PM 26.9591 80.5262 135° Southeast  Level Estimated
12:15PM 26.8661 80.6314 135° Southeast  Level Estimated
12:16PM 26.7730 80.7364 135° Southeast  Level Estimated
12:17PM 26.6798 80.8412 135° Southeast  Level Estimated
12:18PM 26.5865 80.9458 135° Southeast  Level Estimated
12:19PM 26.4931 81.0503 135° Southeast  Level Estimated
12:20PM 26.3997 81.1545 135° Southeast  Level Estimated
12:21PM 26.3062 81.2587 135° Southeast  Level Estimated
12:22PM 26.2126 81.3626 135° Southeast  Level Estimated
12:23PM 26.1189 81.4664 135° Southeast  Level Estimated
12:24PM 26.0252 81.5701 135° Southeast  Level Estimated
12:25PM 25.9314 81.6735 135° Southeast  Level Estimated
12:26PM 25.8375 81.7768 135° Southeast  Level Estimated
12:27PM 25.7435 81.8799 135° Southeast  Level Estimated
12:28PM 25.6495 81.9829 135° Southeast  Level Estimated
12:29PM 25.5554 82.0857 135° Southeast  Level Estimated
12:30PM 25.4612 82.1883 135° Southeast  Level Estimated
12:31PM 25.3670 82.2908 135° Southeast  Level Estimated
12:32PM 25.2727 82.3932 136° Southeast  Level Estimated
12:33PM 25.1783 82.4953 136° Southeast  Level Estimated
12:34PM 25.0838 82.5973 136° Southeast  Level Estimated
12:35PM 24.9893 82.6992 136° Southeast  Level Estimated
12:36PM 24.8947 82.8009 136° Southeast  Level Estimated
12:37PM 24.8001 82.9024 136° Southeast  Level Estimated
12:38PM 24.7053 83.0038 136° Southeast  Level Estimated
12:39PM 24.6105 83.1050 136° Southeast  Level Estimated
12:40PM 24.5157 83.2061 136° Southeast  Level Estimated
12:41PM 24.4207 83.3070 136° Southeast  Level Estimated
12:42PM 24.3257 83.4078 136° Southeast  Level Estimated
12:43PM 24.2307 83.5084 136° Southeast  Level Estimated
12:44PM 24.1355 83.6089 136° Southeast  Level Estimated
12:44PM 24.1440 84.5370 136° Southeast 499 574 41,000  Level FlightAware
12:45PM 24.0403 83.7092 136° Southeast  Level Estimated
12:45PM 24.0550 84.6470 132° Southeast 499 574 41,000  Level FlightAware
12:46PM 23.9890 84.7300 131° Southeast 501 577 41,000  Level FlightAware
12:47PM 23.8810 84.8630 132° Southeast 502 578 41,000  Level FlightAware
12:48PM 23.8420 84.9120 131° Southeast 504 580 41,000  Level FlightAware
12:48PM 23.7780 84.9830 135° Southeast 491 565 41,000  Level FlightAware
12:49PM 23.7160 85.0340 143° Southeast 489 563 41,000  Level FlightAware
12:49PM 23.6430 85.0950 143° Southeast 488 562 41,000  Level FlightAware
12:50PM 23.5820 85.1460 143° Southeast 487 560 41,000  Level FlightAware
12:51PM 23.5240 85.1940 143° Southeast 486 559 41,000  Level FlightAware
12:51PM 23.4610 85.2470 142° Southeast 488 562 41,000  Level FlightAware
12:52PM 23.3970 85.3010 142° Southeast 488 562 41,000  Level FlightAware
12:53PM 23.3230 85.3640 142° Southeast 488 562 41,000  Level FlightAware
12:53PM 23.2710 85.4080 142° Southeast 488 562 41,000  Level FlightAware
12:54PM 23.2170 85.4540 142° Southeast 488 562 41,000  Level FlightAware
12:54PM 23.1190 85.5290 145° Southeast 479 551 41,000  Level FlightAware
12:56PM 22.9950 85.6320 143° Southeast 467 537 41,000  Level FlightAware
12:56PM 22.9240 85.6920 142° Southeast 467 537 41,000  Level FlightAware
12:57PM 22.8490 85.7510 144° Southeast 468 539 41,000  Level FlightAware
12:58PM 22.7880 85.8010 143° Southeast 472 543 41,000  Level FlightAware
12:58PM 22.7210 85.8570 142° Southeast 473 544 41,000  Level FlightAware
12:59PM 22.6410 85.9210 144° Southeast 471 542 41,000  Level FlightAware
01:00PM 22.5740 85.9770 142° Southeast 471 542 41,000  Level FlightAware
01:00PM 22.5090 86.0300 143° Southeast 470 541 41,000  Level FlightAware
01:01PM 22.4550 86.0740 143° Southeast 470 541 41,000  Level FlightAware
01:01PM 22.3920 86.1250 143° Southeast 469 540 41,000  Level FlightAware
01:02PM 22.3400 86.1670 143° Southeast 471 542 41,000  Level FlightAware
01:02PM 22.2690 86.2250 143° Southeast 470 541 41,000  Level FlightAware
01:03PM 22.2160 86.2680 143° Southeast 471 542 41,000  Level FlightAware
01:04PM 22.1470 86.3240 143° Southeast 472 543 41,000  Level FlightAware
01:04PM 22.0760 86.3810 143° Southeast 472 543 41,000  Level FlightAware
01:05PM 22.0210 86.4260 143° Southeast 470 541 41,000  Level FlightAware
01:06PM 21.9490 86.4840 143° Southeast 472 543 41,000  Level FlightAware
01:06PM 21.8840 86.5370 143° Southeast 469 540 41,000  Level FlightAware
01:07PM 21.8060 86.5990 144° Southeast 467 537 41,000  Level FlightAware
01:07PM 21.7510 86.6440 143° Southeast 467 537 41,000  Level FlightAware
01:08PM 21.6810 86.7000 143° Southeast 467 537 41,000  Level FlightAware
01:09PM 21.6250 86.7450 143° Southeast 468 539 41,000  Level FlightAware
01:09PM 21.5630 86.7950 143° Southeast 470 541 41,000  Level FlightAware
01:10PM 21.4740 86.8660 143° Southeast 470 541 41,000  Level FlightAware
01:11PM 21.4220 86.9070 144° Southeast 468 539 41,000  Level FlightAware
01:11PM 21.3620 86.9560 143° Southeast 468 539 41,000  Level FlightAware
01:12PM 21.2520 87.0440 143° Southeast 470 541 41,000  Level FlightAware
01:13PM 21.1840 87.0980 143° Southeast 470 541 41,000  Level FlightAware
01:13PM 21.1310 87.1400 144° Southeast 468 539 41,000  Level FlightAware
01:14PM 21.0720 87.1870 143° Southeast 466 536 41,000  Level FlightAware
01:15PM 21.0140 87.2330 143° Southeast 463 533 41,000  Level FlightAware
01:15PM 20.9550 87.2800 143° Southeast 464 534 41,000  Level FlightAware
01:16PM 20.9080 87.3170 144° Southeast 463 533 41,000  Level FlightAware
01:16PM 20.8240 87.3830 144° Southeast 463 533 41,000  Level FlightAware
01:17PM 20.7560 87.4370 143° Southeast 466 536 41,000  Level FlightAware
01:18PM 20.7030 87.4790 143° Southeast 466 536 41,000  Level FlightAware
01:18PM 20.6320 87.5350 144° Southeast 466 536 41,000  Level FlightAware
01:19PM 20.5250 87.6190 144° Southeast 466 536 41,000  Level FlightAware
01:20PM 20.4070 87.7130 143° Southeast 467 537 41,000  Level FlightAware
01:21PM 20.2990 87.7970 144° Southeast 469 540 41,000  Level FlightAware
01:22PM 20.2440 87.8410 143° Southeast 469 540 41,000  Level FlightAware
01:23PM 20.1760 87.8940 144° Southeast 467 537 41,000  Level FlightAware
01:23PM 20.1160 87.9410 144° Southeast 469 540 41,000  Level FlightAware
01:24PM 20.0600 87.9860 143° Southeast 469 540 41,000  Level FlightAware
01:24PM 19.9990 88.0320 145° Southeast 469 540 41,000  Level FlightAware
01:25PM 19.9400 88.0780 144° Southeast 469 540 41,000  Level FlightAware
01:26PM 19.8630 88.1400 143° Southeast 469 540 41,000  Level FlightAware
01:26PM 19.8100 88.1820 143° Southeast 469 540 41,000  Level FlightAware
01:27PM 19.7590 88.2230 143° Southeast 469 540 41,000  Level FlightAware
01:28PM 19.7040 88.2670 143° Southeast 469 540 41,000  Level FlightAware
01:28PM 19.6330 88.3240 143° Southeast 469 540 41,000  Level FlightAware
01:29PM 19.5060 88.4160 146° Southeast 467 537 41,000  Level FlightAware
01:29PM 19.4890 88.4290 144° Southeast 468 539 41,000  Level FlightAware
01:30PM 19.4110 88.4910 143° Southeast 468 539 41,000  Level FlightAware
01:31PM 19.3360 88.5510 143° Southeast 468 539 41,000  Level FlightAware
01:32PM 19.2660 88.6070 143° Southeast 468 539 41,000  Level FlightAware
01:32PM 19.2130 88.6490 143° Southeast 468 539 41,000  Level FlightAware
01:33PM 19.1600 88.6910 143° Southeast 468 539 41,000  Level FlightAware
01:33PM 19.1060 88.7350 142° Southeast 468 539 41,000  Level FlightAware
01:34PM 19.0530 88.7770 143° Southeast 468 539 41,000  Level FlightAware
01:35PM 19.0000 88.8190 143° Southeast 468 539 41,000  Level FlightAware
01:35PM 18.9660 88.8460 143° Southeast 468 539 41,000  Level FlightAware
01:36PM 18.9160 88.8860 143° Southeast 468 539 41,000  Level FlightAware
01:36PM 18.8440 88.9430 143° Southeast 468 539 41,000  Level FlightAware
01:37PM 18.8040 88.9750 143° Southeast 468 539 41,000  Level FlightAware
01:38PM 18.7010 89.0570 143° Southeast 468 539 41,000  Level FlightAware
01:38PM 18.6680 89.0840 142° Southeast 468 539 41,000  Level FlightAware
01:39PM 18.6130 89.1270 143° Southeast 468 539 41,000  Level FlightAware
01:42PM 18.3702 89.3562 138° Southeast  Level Estimated
01:43PM 18.2717 89.4489 138° Southeast  Level Estimated
01:44PM 18.1732 89.5415 138° Southeast  Level Estimated
01:45PM 18.0746 89.6341 138° Southeast  Level Estimated
01:46PM 17.9760 89.7265 138° Southeast  Level Estimated
01:47PM 17.8773 89.8188 138° Southeast  Level Estimated
01:48PM 17.7786 89.9110 138° Southeast  Level Estimated
01:49PM 17.6799 90.0031 138° Southeast  Level Estimated
01:50PM 17.5811 90.0951 138° Southeast  Level Estimated
01:51PM 17.4822 90.1870 138° Southeast  Level Estimated
01:52PM 17.3833 90.2788 138° Southeast  Level Estimated
01:53PM 17.2844 90.3706 138° Southeast  Level Estimated
01:54PM 17.1854 90.4622 139° Southeast  Level Estimated
01:55PM 17.0864 90.5537 139° Southeast  Level Estimated
01:56PM 16.9874 90.6451 139° Southeast  Level Estimated
01:57PM 16.8883 90.7364 139° Southeast  Level Estimated
01:58PM 16.7892 90.8276 139° Southeast  Level Estimated
01:59PM 16.6900 90.9188 139° Southeast  Level Estimated
02:00PM 16.5908 91.0098 139° Southeast  Level Estimated
02:01PM 16.4915 91.1007 139° Southeast  Level Estimated
02:02PM 16.3922 91.1916 139° Southeast  Level Estimated
02:03PM 16.2929 91.2823 139° Southeast  Level Estimated
02:04PM 16.1935 91.3730 139° Southeast  Level Estimated
02:05PM 16.0941 91.4636 139° Southeast  Level Estimated
02:06PM 15.9947 91.5540 139° Southeast  Level Estimated
02:07PM 15.8952 91.6444 139° Southeast  Level Estimated
02:08PM 15.7957 91.7347 139° Southeast  Level Estimated
02:09PM 15.6961 91.8250 139° Southeast  Level Estimated
02:10PM 15.5965 91.9151 139° Southeast  Level Estimated
02:11PM 15.4969 92.0051 139° Southeast  Level Estimated
02:12PM 15.3972 92.0951 139° Southeast  Level Estimated
02:13PM 15.2975 92.1849 139° Southeast  Level Estimated
02:14PM 15.1978 92.2747 139° Southeast  Level Estimated
02:15PM 15.0980 92.3644 139° Southeast  Level Estimated
02:16PM 14.9982 92.4540 139° Southeast  Level Estimated
02:17PM 14.8984 92.5435 139° Southeast  Level Estimated
02:18PM 14.7985 92.6330 139° Southeast  Level Estimated
02:19PM 14.6986 92.7223 139° Southeast  Level Estimated
02:20PM 14.5986 92.8116 139° Southeast  Level Estimated
02:21PM 14.4987 92.9008 139° Southeast  Level Estimated
02:22PM 14.3986 92.9899 139° Southeast  Level Estimated
02:23PM 14.2986 93.0790 139° Southeast  Level Estimated
02:24PM 14.1985 93.1679 139° Southeast  Level Estimated
02:25PM 14.0984 93.2568 139° Southeast  Level Estimated
02:26PM 13.9983 93.3456 139° Southeast  Level Estimated
02:27PM 13.8981 93.4343 139° Southeast  Level Estimated
02:28PM 13.7979 93.5230 139° Southeast  Level Estimated
02:29PM 13.6976 93.6115 139° Southeast  Level Estimated
02:30PM 13.5974 93.7000 139° Southeast  Level Estimated
02:31PM 13.4970 93.7885 139° Southeast  Level Estimated
02:32PM 13.3967 93.8768 139° Southeast  Level Estimated
02:33PM 13.2963 93.9651 139° Southeast  Level Estimated
02:34PM 13.1959 94.0533 139° Southeast  Level Estimated
02:35PM 13.0955 94.1414 139° Southeast  Level Estimated
02:36PM 12.9950 94.2294 139° Southeast  Level Estimated
02:37PM 12.8946 94.3174 140° Southeast  Level Estimated
02:38PM 12.7940 94.4053 140° Southeast  Level Estimated
02:39PM 12.6935 94.4932 140° Southeast  Level Estimated
02:40PM 12.5929 94.5809 140° Southeast  Level Estimated
02:41PM 12.4923 94.6686 140° Southeast  Level Estimated
02:42PM 12.3917 94.7563 140° Southeast  Level Estimated
02:43PM 12.2910 94.8439 140° Southeast  Level Estimated
02:44PM 12.1903 94.9314 140° Southeast  Level Estimated
02:45PM 12.0896 95.0188 140° Southeast  Level Estimated
02:46PM 11.9889 95.1062 140° Southeast  Level Estimated
02:47PM 11.8881 95.1935 140° Southeast  Level Estimated
02:48PM 11.7873 95.2807 140° Southeast  Level Estimated
02:49PM 11.6865 95.3679 140° Southeast  Level Estimated
02:50PM 11.5856 95.4550 140° Southeast  Level Estimated
02:51PM 11.4848 95.5420 140° Southeast  Level Estimated
02:52PM 11.3839 95.6290 140° Southeast  Level Estimated
02:53PM 11.2829 95.7160 140° Southeast  Level Estimated
02:54PM 11.1820 95.8028 140° Southeast  Level Estimated
02:55PM 11.0810 95.8896 140° Southeast  Level Estimated
02:56PM 10.9800 95.9763 140° Southeast  Level Estimated
02:57PM 10.8790 96.0630 140° Southeast  Level Estimated
02:58PM 10.7779 96.1497 140° Southeast  Level Estimated
02:59PM 10.6769 96.2362 140° Southeast  Level Estimated
02:59PM 11.2860 96.3750 140° Southeast 451 519 41,000  Level FlightAware
02:59PM 11.2510 96.4020 143° Southeast 451 519 41,000  Level FlightAware
03:00PM 11.1490 96.4840 142° Southeast 451 519 41,000  Level FlightAware
03:01PM 11.0570 96.5500 145° Southeast 451 519 41,000  Level FlightAware
03:02PM 10.9690 96.6170 143° Southeast 449 517 41,000  Level FlightAware
03:02PM 10.9040 96.6690 142° Southeast 449 517 41,000  Level FlightAware
03:03PM 10.8450 96.7120 144° Southeast 456 525 41,000  Level FlightAware
03:04PM 10.7380 96.7940 143° Southeast 453 521 41,000  Level FlightAware
03:05PM 10.6380 96.8710 143° Southeast 448 516 41,000  Level FlightAware
03:06PM 10.5390 96.9460 143° Southeast 448 516 41,000  Level FlightAware
03:07PM 10.4810 96.9900 143° Southeast 447 514 41,000  Level FlightAware
03:07PM 10.4230 97.0340 143° Southeast 448 516 41,000  Level FlightAware
03:08PM 10.3580 97.0830 143° Southeast 449 517 41,000  Level FlightAware
03:08PM 10.3040 97.1240 143° Southeast 450 518 41,000  Level FlightAware
03:09PM 10.2470 97.1680 143° Southeast 451 519 41,000  Level FlightAware
03:09PM 10.2040 97.2000 144° Southeast 450 518 41,000  Level FlightAware
03:10PM 10.1320 97.2550 143° Southeast 448 516 41,000  Level FlightAware
03:10PM 10.0890 97.2880 143° Southeast 447 514 41,000  Level FlightAware
03:11PM 10.0130 97.3440 144° Southeast 448 516 41,000  Level FlightAware
03:12PM 9.9090 97.4130 147° Southeast 446 513 41,000  Level FlightAware
03:13PM 9.8370 97.4610 147° Southeast 445 512 41,000  Level FlightAware
03:13PM 9.7770 97.5010 147° Southeast 444 511 41,000  Level FlightAware
03:14PM 9.6820 97.5640 147° Southeast 441 507 41,000  Level FlightAware
03:15PM 9.6100 97.6120 147° Southeast 443 510 41,000  Level FlightAware
03:16PM 9.5470 97.6530 147° Southeast 444 511 41,000  Level FlightAware
03:17PM 9.4440 97.7220 147° Southeast 451 519 41,000  Level FlightAware
03:18PM 9.3400 97.7910 147° Southeast 450 518 41,000  Level FlightAware
03:18PM 9.2760 97.8330 147° Southeast 449 517 41,000  Level FlightAware
03:19PM 9.1740 97.9000 147° Southeast 447 514 41,000  Level FlightAware
03:20PM 9.1120 97.9410 147° Southeast 450 518 41,000  Level FlightAware
03:20PM 9.0550 97.9790 147° Southeast 449 517 41,000  Level FlightAware
03:21PM 8.9610 98.0410 147° Southeast 448 516 41,000  Level FlightAware
03:22PM 8.8990 98.0820 147° Southeast 447 514 41,000  Level FlightAware
03:23PM 8.8330 98.1250 147° Southeast 447 514 41,000  Level FlightAware
03:23PM 8.7820 98.1590 147° Southeast 445 512 41,000  Level FlightAware
03:24PM 8.7100 98.2070 147° Southeast 446 513 41,000  Level FlightAware
03:24PM 8.6380 98.2490 150° Southeast 443 510 41,000  Level FlightAware
03:25PM 8.5640 98.2830 156° South 445 512 41,000  Level FlightAware
03:26PM 8.4850 98.3110 161° South 446 513 41,000  Level FlightAware
03:27PM 8.3840 98.3460 161° South 448 516 41,000  Level FlightAware
03:27PM 8.3080 98.3720 161° South 447 514 41,000  Level FlightAware
03:28PM 8.2360 98.4030 157° South 445 512 41,000  Level FlightAware
03:28PM 8.1700 98.4350 154° Southeast 445 512 41,000  Level FlightAware
03:30PM 8.0700 98.5120 143° Southeast 438 504 41,000  Level FlightAware
03:30PM 8.0170 98.5440 149° Southeast 437 503 41,000  Level FlightAware
03:31PM 7.9250 98.5970 150° Southeast 440 506 41,000  Level FlightAware
03:31PM 7.8680 98.6400 143° Southeast 437 503 41,000  Level FlightAware
03:32PM 7.8180 98.6760 144° Southeast 437 503 41,000  Level FlightAware
03:33PM 7.7640 98.7160 144° Southeast 440 506 41,000  Level FlightAware
03:34PM 7.6630 98.7910 144° Southeast 441 507 41,000  Level FlightAware
03:34PM 7.6050 98.8330 144° Southeast 437 503 41,000  Level FlightAware
03:35PM 7.5500 98.8730 144° Southeast 434 499 41,000  Level FlightAware
03:35PM 7.4950 98.9140 144° Southeast 433 498 41,000  Level FlightAware
03:36PM 7.4180 98.9700 144° Southeast 432 497 41,000  Level FlightAware
03:37PM 7.3660 99.0090 143° Southeast 435 501 41,000  Level FlightAware
03:37PM 7.3070 99.0510 145° Southeast 432 497 41,000  Level FlightAware
03:38PM 7.2420 99.0990 144° Southeast 432 497 41,000  Level FlightAware
03:38PM 7.1950 99.1340 144° Southeast 432 497 41,000  Level FlightAware
03:39PM 7.1470 99.1690 144° Southeast 432 497 41,000  Level FlightAware
03:40PM 7.0700 99.2250 144° Southeast 434 499 41,000  Level FlightAware
03:40PM 7.0180 99.2640 143° Southeast 435 501 41,000  Level FlightAware
03:41PM 6.9650 99.3020 145° Southeast 435 501 41,000  Level FlightAware
03:41PM 6.9070 99.3450 144° Southeast 435 501 41,000  Level FlightAware
03:42PM 6.8650 99.3750 145° Southeast 435 501 41,000  Level FlightAware
03:42PM 6.7950 99.4270 144° Southeast 438 504 41,000  Level FlightAware
03:43PM 6.7620 99.4510 144° Southeast 437 503 41,000  Level FlightAware
03:44PM 6.6450 99.5360 144° Southeast 439 505 41,000  Level FlightAware
03:45PM 6.5560 99.6010 144° Southeast 440 506 41,000  Level FlightAware
03:46PM 6.4630 99.6690 144° Southeast 445 512 41,000  Level FlightAware
03:46PM 6.4060 99.7110 144° Southeast 447 514 41,000  Level FlightAware
03:47PM 6.3120 99.7790 144° Southeast 449 517 41,000  Level FlightAware
03:48PM 6.1970 99.8670 143° Southeast 452 520 41,000  Level FlightAware
03:49PM 6.0980 99.9220 151° Southeast 453 521 41,000  Level FlightAware
03:50PM 6.0480 99.9490 152° Southeast 452 520 41,000  Level FlightAware
03:51PM 5.9380 100.0090 152° Southeast 452 520 41,000  Level FlightAware
03:51PM 5.8720 100.0450 152° Southeast 451 519 41,000  Level FlightAware
03:52PM 5.8000 100.0840 152° Southeast 450 518 41,000  Level FlightAware
03:53PM 5.7350 100.1190 152° Southeast 448 516 41,000  Level FlightAware
03:53PM 5.6800 100.1480 152° Southeast 448 516 41,000  Level FlightAware
03:54PM 5.6220 100.1800 151° Southeast 448 516 41,000  Level FlightAware
03:54PM 5.5620 100.2120 152° Southeast 447 514 41,000  Level FlightAware
03:55PM 5.4990 100.2460 152° Southeast 449 517 41,000  Level FlightAware
03:55PM 5.4330 100.2820 151° Southeast 450 518 41,000  Level FlightAware
03:56PM 5.3330 100.3360 152° Southeast 451 519 41,000  Level FlightAware
03:57PM 5.2580 100.3770 151° Southeast 453 521 41,000  Level FlightAware
03:58PM 5.1980 100.4090 152° Southeast 455 524 41,000  Level FlightAware
03:58PM 5.1190 100.4510 152° Southeast 454 522 41,000  Level FlightAware
03:59PM 5.0530 100.4870 151° Southeast 453 521 41,000  Level FlightAware
04:00PM 4.9540 100.5400 152° Southeast 448 516 41,000  Level FlightAware
04:00PM 4.8890 100.5750 152° Southeast 447 514 41,000  Level FlightAware
04:01PM 4.8430 100.6000 152° Southeast 445 512 41,000  Level FlightAware
04:01PM 4.7890 100.6290 152° Southeast 445 512 41,000  Level FlightAware
04:02PM 4.7080 100.6730 152° Southeast 445 512 41,000  Level FlightAware
04:02PM 4.6520 100.7030 152° Southeast 445 512 41,000  Level FlightAware
04:03PM 4.5700 100.7470 152° Southeast 447 514 41,000  Level FlightAware
04:04PM 4.4600 100.8070 151° Southeast 448 516 41,000  Level FlightAware
04:05PM 4.3960 100.8410 152° Southeast 449 517 41,000  Level FlightAware
04:05PM 4.3420 100.8700 152° Southeast 449 517 41,000  Level FlightAware
04:06PM 4.2300 100.9300 152° Southeast 448 516 41,000  Level FlightAware
04:07PM 4.1790 100.9640 146° Southeast 448 516 41,000  Level FlightAware
04:07PM 4.1110 101.0100 146° Southeast 448 516 41,000  Level FlightAware
04:08PM 4.0150 101.0750 146° Southeast 446 513 41,000  Level FlightAware
04:09PM 3.9110 101.1440 146° Southeast 446 513 41,000  Level FlightAware
04:10PM 3.8690 101.1720 146° Southeast 444 511 41,000  Level FlightAware
04:10PM 3.8090 101.2120 146° Southeast 444 511 41,000  Level FlightAware
04:11PM 3.7640 101.2430 145° Southeast 444 511 41,000  Level FlightAware
04:12PM 3.6940 101.2900 146° Southeast 444 511 41,000  Level FlightAware
04:12PM 3.6410 101.3250 147° Southeast 445 512 41,000  Level FlightAware
04:13PM 3.5770 101.3680 146° Southeast 445 512 41,000  Level FlightAware
04:13PM 3.5230 101.4040 146° Southeast 445 512 41,000  Level FlightAware
04:14PM 3.4490 101.4540 146° Southeast 447 514 41,000  Level FlightAware
04:14PM 3.3950 101.4900 146° Southeast 444 511 41,000  Level FlightAware
04:15PM 3.3440 101.5240 146° Southeast 443 510 41,000  Level FlightAware
04:16PM 3.2460 101.5900 146° Southeast 445 512 41,000 -60 Level FlightAware
04:17PM 3.1660 101.6430 147° Southeast 443 510 40,900 -240 Descending FlightAware
04:17PM 3.1340 101.6650 146° Southeast 444 511 40,700 -600 Descending FlightAware
04:18PM 3.0650 101.7110 146° Southeast 445 512 40,200 -660 Descending FlightAware
04:19PM 2.9860 101.7640 146° Southeast 449 517 39,700 -780 Descending FlightAware
04:19PM 2.9090 101.8150 147° Southeast 451 519 39,100 -900 Descending FlightAware
04:20PM 2.8600 101.8480 146° Southeast 454 522 38,800 -780 Descending FlightAware
04:20PM 2.8020 101.8870 146° Southeast 458 527 38,300 -720 Descending FlightAware
04:22PM 2.6820 101.9670 146° Southeast 464 534 37,600 -660 Descending FlightAware
04:22PM 2.6280 102.0030 146° Southeast 465 535 37,300 -960 Descending FlightAware
04:23PM 2.4420 102.1270 146° Southeast 478 550 35,800 -1,620 Descending FlightAware
04:24PM 2.4010 102.1550 146° Southeast 482 555 34,400 -2,220 Descending FlightAware
04:25PM 2.3020 102.2540 135° Southeast 487 560 32,700 -1,620 Descending FlightAware
04:26PM 2.2160 102.3620 129° Southeast 497 572 31,300 -2,700 Descending FlightAware
04:27PM 2.1310 102.4690 128° Southeast 495 570 27,400 -3,000 Descending FlightAware
04:28PM 2.0740 102.5410 128° Southeast 482 555 25,200 -1,920 Descending FlightAware
04:28PM 2.0390 102.5850 129° Southeast 467 537 24,500 -1,380 Descending FlightAware
04:30PM 1.9430 102.7030 129° Southeast 415 478 22,900 -1,620 Descending FlightAware
04:30PM 1.9070 102.7490 128° Southeast 408 470 21,800 -1,620 Descending FlightAware
04:31PM 1.8380 102.8370 128° Southeast 385 443 20,500 -1,260 Descending FlightAware
04:32PM 1.7960 102.8920 127° Southeast 366 421 19,700 -720 Descending FlightAware
04:33PM 1.7270 102.9800 128° Southeast 353 406 19,100 -360 Descending FlightAware
04:34PM 1.7060 103.0070 128° Southeast 353 406 19,100 -2,640 Level FlightAware
04:34PM 1.6260 103.1080 128° Southeast 334 384 16,100 -3,120 Descending FlightAware
04:35PM 1.6030 103.1300 136° Southeast 336 387 15,800 -660 Descending FlightAware
04:36PM 1.5280 103.1760 148° Southeast 327 376 15,300 -720 Descending FlightAware
04:36PM 1.4810 103.2060 147° Southeast 324 373 14,700 -1,080 Descending FlightAware
04:37PM 1.4390 103.2350 145° Southeast 325 374 14,000 -1,140 Descending FlightAware
04:37PM 1.3930 103.2670 145° Southeast 316 364 13,300 -960 Descending FlightAware
04:38PM 1.3620 103.2860 149° Southeast 303 349 13,000 -660 Descending FlightAware
04:39PM 1.3060 103.3230 147° Southeast 292 336 12,500 -660 Descending FlightAware
04:39PM 1.2770 103.3440 144° Southeast 296 341 12,200 -660 Descending FlightAware
04:40PM 1.2510 103.3770 128° Southeast 284 327 11,900 -780 Descending FlightAware
04:41PM 1.2380 103.4450 101° East 273 314 11,100 -900 Descending FlightAware
04:41PM 1.2310 103.4810 101° East 270 311 10,700 -780 Descending FlightAware
04:42PM 1.2200 103.5370 101° East 278 320 10,200 -360 Descending FlightAware
04:43PM 1.2100 103.5900 101° East 268 308 10,200 -180 Level FlightAware
04:43PM 1.2040 103.6300 99° East 272 313 10,000 -660 Descending FlightAware
04:44PM 1.1960 103.6750 100° East 274 315 9,500 -840 Descending FlightAware
04:44PM 1.1870 103.7160 102° East 265 305 9,100 -900 Descending FlightAware
04:45PM 1.1820 103.7470 99° East 263 303 8,600 -1,200 Descending FlightAware
04:45PM 1.1760 103.7820 100° East 265 305 8,000 -1,200 Descending FlightAware
04:46PM 1.1760 103.8140 90° East 262 302 7,500 -1,140 Descending FlightAware
04:46PM 1.1750 103.8490 92° East 257 296 7,000 -960 Descending FlightAware
04:46PM 1.1750 103.8740 90° East 254 292 6,700 -960 Descending FlightAware
04:47PM 1.1750 103.9160 90° East 249 287 6,100 -960 Descending FlightAware
04:47PM 1.1750 103.9330 90° East 239 275 5,900 -780 Descending FlightAware
04:48PM 1.1680 103.9720 100° East 215 247 5,400 -900 Descending FlightAware
04:48PM 1.1460 103.9880 144° Southeast 207 238 4,900 -960 Descending FlightAware
04:49PM 1.1240 104.0000 151° Southeast 207 238 4,600 -600 Descending FlightAware
04:49PM 1.0930 104.0150 154° Southeast 202 232 4,300 -420 Descending FlightAware
04:50PM 1.0750 104.0070 204° Southwest 202 232 4,200 -120 Descending FlightAware
04:50PM 1.0610 103.9850 238° Southwest 197 227 4,200 -240 Level FlightAware
04:51PM 1.0680 103.9570 284° West 198 228 4,000 -540 Descending FlightAware
04:51PM 1.0750 103.9320 286° West 205 236 3,700 -600 Descending FlightAware
04:52PM 1.0790 103.9190 287° West 209 241 3,600 -360 Descending FlightAware
04:52PM 1.1090 103.9000 328° Northwest 214 246 3,400 -360 Descending FlightAware
04:52PM 1.1280 103.8970 351° North 211 243 3,300 -360 Descending FlightAware
04:53PM 1.1590 103.8970 360° North 210 242 3,100 -300 Descending FlightAware
04:54PM 1.1940 103.9120 23° Northeast 206 237 3,000 -180 Descending FlightAware
04:54PM 1.2200 103.9230 23° Northeast 188 216 2,900 -600 Descending FlightAware
04:55PM 1.2420 103.9320 22° Northeast 180 207 2,400 -1,080 Descending FlightAware
04:55PM 1.2730 103.9450 23° Northeast 160 184 1,700 -960 Descending FlightAware
04:56PM 1.2890 103.9520 24° Northeast 154 177 1,400 -780 Descending FlightAware
04:56PM 1.3150 103.9630 23° Northeast 149 171 900 -780 Descending FlightAware
04:57PM 1.3300 103.9690 22° Northeast 146 168 600 -720 Descending FlightAware
04:57PM 1.3470 103.9770 25° Northeast 142 163 300 -660 Descending FlightAware
04:58PM 1.3610 103.9830 23° Northeast 105 121 -780 Descending FlightAware
04:58PM 1.3710 103.9870 22° Northeast 105 121  Level FlightAware